Download - Flyer Runnersworld Wallenloop

Je kunt je nu al inschrijven via inschrijven.nl. Met voor-inschrijven krijg je € 1,- op het inschrijfgeld.

Flyer

Op donderdagavond 21 mei 2015 organiseert atletiekverenging Pallas'93 uit Hellevoetsluis in samenwerking met Hockeyclub Voorne uit Hellevoetsluis een prestatieloop rond de gorzen en wallen van Hellevoetsluis. In het verleden werd in Hellevoetsluis al de 'Wallenloop' georganiseerd. Na alle positieve reacties van de afgelopen jaren is besloten dit jaar de vijfde Runnersworld Wallenloop te organiseren.

De prestatieloop heeft een regionaal karakter. De start vind plaats op loopafstand van het complex van de hockeyvereniging, thv de rotonde op de Amnesty Internationallaan en de finish bevindt zich op de parkeerplaats van Hockeyclub Voorne.

Het parcours van de Wallenloop start vanaf de Haringvlietweg en gaat via het gorzenpad en de Nieuwe Zeedijk richting de Westzijde van de vestingwallen. Deze worden volledig afgelopen tot aan het droogdok, en op de terugweg via de molen weer terug. Op de terugweg wordt ook nog om de vuurtoren heen gelopen om zo een aantal Hellevoetse highlights te passeren.

Om de loop gangbaar te maken voor zoveel mogelijk mensen bestaat de loop, voor personen ouder dan 12 jaar, uit twee hoofdafstanden; een 4,4 en een 10 kilometer. Alleen de 10 km loopt via de vestingwallen. De Wallenloop wordt gesponsord door Runnersworld Spijkenisse/Hellevoetsluis.

Je kunt je nu al inschrijven via inschrijven.nl. Met voor-inschrijven krijg je € 1,- korting op het inschrijfgeld.

Parcours
Nr.NaamPlaats/VerenigingNr.TijdCat.
001 Poldervaart Erwin Pallas'93 410 0:33:51 1eH
002 Postma Dennis Pallas'93 405 0:35:26 1eH40
003 Padmos Wim Pallas'93 370 0:35:48 2eH40
004 Papenhove Wouter Delft 408 0:36:21 2eH
005 Stucker Wolfgang Brielle 339 0:37:09 3eH
006 Luijendijk Job PAC 484 0:37:31 4eH
007 Kruik Melvin Pallas'03 472 0:37:34 5eH
008 Hartman Vanessa Voorne Atl 451 0:37:38 1eD
009 Gelton Marcel Pallas'93 367 0:37:44 6eH
010 Koning Louise de Pallas'93 427 0:37:58 3eH40
011 Tuk Henk Voorne Atletiek 421 0:39:09 1eH50
012 Jansen Edwin Spark 437 0:39:22 7eH
013 Vette Ruud de Pallas'93 389 0:39:27 2eH50
014 Reuijl Arjan Flakkee 397 0:40:24 4eH40
015 Hordijk Daniel Hellevoetsluis 435 0:40:43 8eH
016 Zuidweg Jan Flakkee 400 0:41:00 3eH50
017 Croes Don Voorne Atl 444 0:41:03 5eH40
018 Noordzij Edward Tempeliers 380 0:41:06 9eH
019 Hoek Jaap Stellerunners 417 0:41:11 4eH50
020 Klink Sander Pallas'93 500 0:41:15 10eH
021 Dijk Arie van Flakkee 440 0:41:19 5eH50
022 Goedendorp Richard Pallas'93 489 0:41:22 11eH
023 Groot Leendert de Schiedam 313 0:41:27 6eH50
024 Meijer Martijn Hellevoetsluis 361 0:41:29 12eH
025 Knaap Ramon v d Pallas'93 436 0:41:32 13eH
026 Bergen Ben van Hellevoetsluis 383 0:42:21 6eH40
027 Blok Martien Voorne Atletiek 381 0:42:24 7eH50
028 Jansen Leo Zuidland 322 0:43:07 8eH50
029 Waaij Marjan de Pallas'93 371 0:43:19 1eD45
030 Palm Remco Pallas'93 411 0:43:52 14eH
031 Kros Cor Tempelrunners 404 0:44:13 9eH50
032 Hoogendalem Augusta Fortuna 480 0:44:47 2eD
033 Ruiter Arie de Stellerunners 384 0:45:07 7eH40
034 Rumpt Marcel van Pallas'93 346 0:45:15 8eH40
035 Maanen Rob van Voorne Atletiek 368 0:45:18 9eH40
036 Es Eric van Pallas'93 498 0:45:23 10eH40
037 Schellevis Martin Sommelsdijk 447 0:45:28 11eH40
038 Spoormaker Richard Hellevoetsluis 360 0:45:42 12eH40
039 Westerveld Frans Pallas'93 455 0:45:48 15eH
040 Blokpoel Michael Hellevoetsluis 326 0:45:54 16eH
041 Valk Henk Hellevoetsluis 432 0:45:58 10eH50
042 Verroen Marvin Pallas'93 476 0:46:00 13eH40
043 Kohn Ronald Zuidland 466 0:46:03 11eH50
044 Emor Jeffrey Brielle 467 0:46:05 17eH
045 Brosky Timon Hellevoetsluis 468 0:46:07 18eH
046 Bree Auke de Hellevoetsluis 395 0:46:10 19eH
047 Spoelman Edwin Hellevoetsluis 333 0:46:11 14eH40
048 Jansen Andre Abbenbroek 423 0:46:13 12eH50
049 Kampen Egon van Dutch Runners 428 0:46:15 13eH50
050 Rustenburg Mark Oostvoorne 350 0:46:17 15eH40
051 Oudheusden Roy van Hellevoetsluis 438 0:46:19 20eH
052 Verstegen Vincemt Spijkenisse 422 0:46:22 14eH50
053 Verhaar Ron Klaaswaal 325 0:46:38 15eH50
054 Verhagen Peter Ouddorp 448 0:46:42 16eH50
055 Damen Luuk Oosterhout 323 0:46:44 21eH
056 Winter Anthony de Voorne Atletiek 425 0:46:49 17eH50
057 Klein Adrie Stellerunners 392 0:47:02 18eH50
058 Langbroek Danny Voorne Atletiek 394 0:47:06 16eH40
059 Velzen Michel van Dirksland 382 0:47:10 22eH
060 Kros Ferry Pallas'93 479 0:47:13 19eH50
061 Polder Jeroen v d Rozenburg 345 0:47:17 17eH40
062 Buuren Eric van Brielle 312 0:47:25 18eH40
063 Valk Ton Voorne Atletiek 424 0:47:29 20eH50
064 Wiegersma John Voorne Atletiek 365 0:47:32 19eH40
065 Snijders Johan Voorne Atletiek 366 0:47:34 20eH40
066 Poortvliet Yorgo Pallas'93 465 0:47:37 21eH40
067 Schippers Erik Hellevoetsluis 324 0:47:41 22eH40
068 Boon Ab Voorne Atletiek 418 0:47:43 21eH50
069 Agulair Rut Pallas'93 374 0:47:47 23eH
070 Zinnemers Eric Pallas'93 330 0:47:49 23eH40
071 Kranendonk Jeroen Delta Sport 409 0:47:56 24eH
072 Becker Ferry Pallas'93 359 0:48:10 25eH
073 Meer Jeroen vd Voorne Atletiek 376 0:48:15 26eH
074 Winkel Erik de Pallas'93 419 0:48:20 24eH40
075 Vos Gerard Pallas'93 482 0:48:22 22eH50
076 Zeeuws Fred de Pallas'93 401 0:48:24 23eH50
077 Soest Dick van Rijssen 433 0:48:26 24eH50
078 Hoogerwerf Aad Voorne Atletiek 442 0:48:28 25eH50
079 Dewerker Remco Hellevoetsluis 386 0:48:31 27eH
080 Groningen Judith van Flakkee 443 0:48:38 3eD
081 Vlekke Henk Voorne Atletiek 315 0:48:50 26eH50
082 Vissers Robert Hellevoetsluis 378 0:48:54 28eH
083 Tempel Wubbo Rotterdam 024 0:48:58 25eH40
084 Schellevis Bram Stellerunners 416 0:49:14 27eH50
085 Verhage Rita Flakkee 449 0:49:17 2eD45
086 Ploeg Annelies vd Voorne Atletiek 314 0:49:26 4eD
087 Zwet ErikJan van Hellevoetsluis 341 0:49:43 26eH40
088 Dewerker Remco Hellevoetsluis 385 0:49:52 29eH
089 Leijdekkers Erik Rockanje 362 0:49:55 27eH40
090 Sweeris Esther Voorne Atletiek 458 0:49:57 3eD45
091 Roodenburg Kasper Hellevoetsluis 429 0:50:16 30eH
092 Dongen Egidius van Voorne Atletiek 413 0:50:18 28eH50
093 Klok Nienke Voorne Atletiek 318 0:50:20 5eD
094 Lub Kievit Marinda Pallas'93 399 0:50:23 6eD
095 Noordzij Bertus Pallas'93 495 0:50:25 28eH40
096 Gevaert Elaine Pallas'93 477 0:50:27 7eD
097 Schipper Robert Voorne Atletiek 398 0:50:58 29eH50
098 Willemsen Diana Pallas'93 456 0:51:01 4eD45
099 Posthuma Marco Middelharnis 377 0:51:06 29eH40
100 Olmer Renske Brielle 473 0:51:09 5eD45
101 Klok Werner Oostvoorne 363 0:51:12 31eH
102 Zabicki Marijn Rotterdam 445 0:51:14 32eH
103 Linden Leo v d Pallas'93 406 0:51:17 30eH50
104 Nagtegaal Roland Stellendam 462 0:51:34 30eH40
105 Thumann Arnold Hellevoetsluis 457 0:51:54 31eH40
106 Winkels Corne Voorne Atletiek 347 0:51:57 32eH40
107 Ethan Elly Voorne Atletiek 414 0:52:06 31eH50
108 Verhoef Afke Voorne Atl 450 0:52:16 6eD45
109 Kleijnburg Leo Voorne Atletiek 375 0:52:28 32eH50
110 Gevaert Carola Pallas'93 474 0:52:39 8eD
111 Harmeling Rault Spijkenisse 390 0:52:42 33eH40
112 Weeda Helene Nw 319 0:52:44 9eD
113 Weeda Brian nw 320 0:52:46 33eH
114 Kasius Inge Pallas'93 488 0:53:08 10eD
115 Strien Wesley van Hellevoetsluis 337 0:53:11 34eH
116 Baartman Mario Oostvoorne 430 0:53:28 34eH40
117 Schinkel Sylvia Pallas'93 434 0:53:32 7eD45
118 Jansen Rik Hellevoetsluis 352 0:53:40 35eH
119 Reitsma Margo Oostvoorne 431 0:53:43 11eD
120 Tameris Aimy Spijkenisse 492 0:53:45 12eD
121 Dassen Monique Hellevoetsluis 439 0:53:48 13eD
122 Langbroek Johan Stellerunners 393 0:53:52 33eH50
123 Gijze Rick van Hellevoetsluis 338 0:53:56 36eH
124 Haan David de Hellevoetsluis 364 0:54:13 35eH40
125 Almen Ton van Pallas'93 396 0:54:24 34eH50
126 Overeem Fred van Hellevoetsluis 321 0:54:26 36eH40
127 Vos Annelies Hellevoetsluis 441 0:54:28 14eD
128 Mailer Dirkjan Rockanje 336 0:54:36 37eH
129 Hoog Marjan de Pallas'93 463 0:55:05 8eD45
130 Soltesz Gabor Hellevoetsluis 353 0:55:08 38eH
131 Gelder Berry de Pallas'93 379 0:55:09 35eH50
132 Dis Elise van Pallas'93 453 0:55:12 15eD
133 Schuttinga Rick Spijkenisse 452 0:55:14 39eH
134 Boogaard Pascal Spijkenisse 388 0:55:16 37eH40
135 Waard Jaap de Hellevoetsluis 426 0:55:18 36eH50
136 Rehorst Albert Brielle 490 0:55:20 40eH
137 Vogelzang Alex Pallas'93 331 0:55:23 38eH40
138 Prins Maarten Rozenburg 332 0:55:25 41eH
139 Tinus Linda Voorne Atletiek 348 0:55:27 16eD
140 Tieleman Wendy Flakkee 334 0:55:35 17eD
141 Zwep Douwe Stellerunners 412 0:55:59 37eH50
142 Troost Mario Herkingen 402 0:56:05 38eH50
143 Lankhorst Perry Pallas'93 403 0:56:08 39eH40
144 Vliet Esther van Hellevoetsluis 340 0:56:10 42eH
145 Homma Brigitta Voorne Atletiek 349 0:56:12 18eD
146 Goudappel Joyce Voorne Atl 485 0:56:14 19eD
147 Vendeloo Marco Hellevoetsluis 470 0:56:37 40eH40
148 Vendeloo Silvia Pallas'93 461 0:56:40 20eD
149 Heuvel Monica van den Pallas'93 454 0:56:57 9eD45
150 Buzner Jessica Hellevoetsluis 358 0:57:03 21eD
151 Rumpt Vanesse van Brielle 373 0:57:05 22eD
152 Makop Peter Hellevoetsluis 407 0:57:11 41eH40
153 Gavenaerts Rianne Voorne Atletiek 344 0:57:18 23eD
154 Boeren Mirte Brielle 372 0:57:56 24eD
155 Visser Lenie de Waterweg 478 0:58:18 10eD45
156 Gutteling Judith Hellevoetsluis 391 0:58:32 25eD
157 Lelij Angelique de Hellevoetsluis 493 0:59:39 26eD
158 Bergwerff Diana Voorne Atletiek 335 1:00:23 27eD
159 Holtkamp Gerard Krimpen ad Yssel 459 1:00:44 39eH50
160 Dussen Thea van Krimpen ad Yssel 460 1:00:47 11eD45
161 Oostlander Linda Hellevoetsluis 499 1:00:54 28eD
162 Kieser Stephanie Hellevoetsluis 316 1:01:09 29eD
163 Kas Anette Hellevoetsluis 471 1:01:13 30eD
164 Gabriel Galto Hellevoetsluis 317 1:01:19 42eH40
165 Kievit Adria Stellerunners 328 1:01:26 31eD
166 Lauwers Janet Stellerunners 329 1:01:36 12eD45
167 Steinbrecher Wil Stellerunners 327 1:01:38 13eD45
168 Hoog Bianca de Voorne Atletiek 387 1:01:56 32eD
169 Erdmann Claudia Pallas'93 420 1:02:18 14eD45
170 Beugen Dorothe v Hellevoetsluis 351 1:02:57 33eD
171 Lieshout Andre van Hellevoetsluis 342 1:04:38 40eH50
172 Ruiter Joyce de Hellevoetsluis 486 1:05:24 34eD
173 Holtkamp Francis Hellevoetsluis 487 1:05:33 35eD
174 Schavemaker Nellie Stellerunners 354 1:06:27 15eD45
175 Kroon Joke v d Stellerunners 356 1:06:29 16eD45
176 Kievit Els Stellerunners 355 1:06:31 36eD
177 Verweij Nicolette Stellerunners 357 1:06:33 17eD45
178 Langendoen Sharon Hellevoetsluis 481 1:12:45 37eD
179 Langendendoen Anita Pallas'93 483 1:12:47 18eD45
180 Bakker Annemarie Pallas'93 496 1:12:50 19eD45
Nr.NaamPlaats/VerenigingNr.TijdCat.
001 Helbers Joop Pallas'93 082 0:15:12 1eH4k
002 Stolk Edwin Flakkee 026 0:15:16 2eH4k
003 Bloem Vincent Pallas'93 045 0:15:23 3eH4k
004 Sloots Petra Spark 053 0:16:27 1eD4k
005 Kerkhof Henk Tempelrunnes 055 0:16:52 4eH4k
006 Hove Ferry ten Pallas'93 061 0:17:16 5eH4k
007 Duivendijk Hans Hellevoetsluis 058 0:17:41 6eH4k
008 Rijkeboer Jelle Hellevoetsluis 031 0:17:57 7eH4k
009 Meijburg Rutger Voorne Atletiek 096 0:19:06 8eH4k
010 Schippers Ernst Hellevoetsluis 097 0:19:08 9eH4k
011 Christen Michel Brielle 044 0:19:11 1eH40
012 Karsten Rikkert Hellevoetsluis 066 0:20:03 10eH4k
013 Westbroek Robin Hellevoetsluis 067 0:20:05 11eH4k
014 Varenkamp Suzanne Hellevoetsluis 060 0:20:06 2eD4k
015 Risseuuw Wilko Hellevoetsluis 102 0:20:15 12eH4k
016 Hamann Sylvia Rockanje 059 0:20:18 3eD4k
017 Droge Eelco Numansdorp 077 0:20:20 13eH4k
018 Warbout Patrick Rockanje 079 0:20:33 14eH4k
019 Saan Erik Hellevoetsluis 047 0:20:40 15eH4k
020 Mourik Lucas van Hellevoetsluis 002 0:20:49 16eH4k
021 Torres Auner Capelle 081 0:21:08 17eH4k
022 Vries Martijn de Hellevoetsluis 046 0:21:19 18eH4k
023 Nieboer Patricia Hellevoetsluis 078 0:21:41 4eD4k
024 Mourik Edwin van Hellevoetsluis 001 0:22:15 19eH4k
025 Doelder Joyce de Hellevoetsluis 005 0:22:25 5eD4k
026 Klink Radna Voorne Atl 083 0:22:51 6eD4k
027 Vijfwinkel Wouter Hellevoetsluis 050 0:23:03 20eH4k
028 Stolk Ruth Flakkee 072 0:23:18 7eD4k
029 Lampen Ger Hellevoetsluis 008 0:23:20 21eH4k
030 Haan Bianca de Hellevoetsluis 075 0:23:50 22eH4k
031 Hoogduin Nancy Hellevoetsluis 074 0:24:03 8eD4k
032 Teders Anno Pallas'93 095 0:24:19 2eH40
033 Winkel Natasja de Pallas'93 011 0:24:26 9eD4k
034 Hazeveld Tjerk Pallas'93 033 0:24:38 23eH4k
035 Bosman Tjerk Spijkenisse 063 0:24:40 24eH4k
036 Meekel Sandra Hellevoetsluis 068 0:24:42 10eD4k
037 Mast Tamira v d Hellevoetsluis 057 0:24:43 11eD4k
038 Mast Hans v d Schiedam 056 0:24:45 25eH4k
039 Have Dunja van Hellevoetsluis 087 0:24:47 12eD4k
040 Posthuma Sanne Middelharnis 065 0:24:48 13eD4k
041 Dam Laura van Hellevoetsluis 015 0:25:01 14eD4k
042 Mol Lisette Hellevoetsluis 016 0:25:03 15eD4k
043 Wolf Annamarie Voorne Atl 084 0:25:06 16eD4k
044 Andeweg Martine Hellevoetsluis 073 0:25:08 17eD4k
045 Vogelzang Suzanne Rozenburg 094 0:25:27 18eD4k
046 Slagmolen Laura Hellevoetsluis 004 0:25:29 19eD4k
047 Driel Aad van Pallas'93 025 0:25:33 26eH4k
048 Aarre Tutta Hellevoetsluis 012 0:25:45 20eD4k
049 Lange Julia de Hellevoetsluis 041 0:25:58 21eD4k
050 Lange Marit de Hellevoetsluis 042 0:26:00 22eD4k
051 Ronde Ilona de Voorne Atletiek 343 0:26:18 23eD4k
052 Stolk Plonnie Voorne Atl 085 0:26:20 24eD4k
053 Ooms Megan Hellevoetsluis 006 0:26:30 25eD4k
054 Linden Wobe van der Pallas'93 007 0:26:32 27eH4k
055 Kreeuselier Marlinke Hellevoetsluis 098 0:26:35 26eD4k
056 Boerstra Merel Pallas'93 023 0:26:39 28eH4k
057 Nederlof Kim Hellevoetsluis 020 0:26:49 27eD4k
058 Linden Tobias van der Hellevoetsluis 021 0:26:50 29eH4k
059 Goudappel Janice Pallas'93 064 0:26:58 28eD4k
060 Goudappe; Monique Pallas'93 028 0:27:00 29eD4k
061 Kluijver Sebastiaan de Pallas'93 035 0:27:08 30eH4k
062 Visser Cindy Hellevoetsluis 086 0:27:17 30eD4k
063 Vos Kayla de Hellevoetsluis 038 0:27:19 31eD4k
064 Brouwn Debra Pallas'93 080 0:27:21 32eD4k
065 Wulf Hanna de Mechelen 043 0:27:23 33eD4k
066 Wenisch Linda Pallas'93 018 0:27:27 34eD4k
067 Marion Wendy van Spijkenisse 090 0:27:31 35eD4k
068 Roelofs Ton Pallas'93 051 0:27:33 31eH4k
069 Kok John Pallas'93 054 0:27:59 32eH4k
070 Linden Erwin van der Hellevoetsluis 022 0:28:03 33eH4k
071 Vos Sandra de Hellevoetsluis 039 0:28:07 36eD4k
072 Mierop Tamara Scharendijke 091 0:28:37 37eD4k
073 Leeuwen Ellen van Pallas'93 076 0:28:53 34eH4k
074 Kraan Joyce v d Pallas'93 089 0:28:55 38eD4k
075 Houten Petra van Hellevoetsluis 019 0:28:57 39eD4k
076 Goedendorp Marijke Pallas'93 092 0:29:24 40eD4k
077 Scheidler Natasja Spijkenisse 071 0:29:57 41eD4k
078 Rooijen Nathalie v Hoogvliet 070 0:29:59 42eD4k
079 Roest Floor v d Hellevoetsluis 036 0:30:02 35eH4k
080 Roest Remco v d Pallas'93 037 0:30:04 36eH4k
081 Kloppenburg Kelly Hoogvliet 069 0:30:16 43eD4k
082 Kraan Helene v d Pallas'93 093 0:30:35 44eD4k
083 Bsceten Melih Hellevoetsluis 088 0:30:36 37eH4k
084 Warnaar Marloes Fortuna 014 0:30:57 45eD4k
085 Kranendonk Wendy Flakkee 052 0:31:14 46eD4k
086 Geerinck Louise Hellevoetsluis 034 0:31:24 47eD4k
087 Moerland Maaike Hellevoetsluis 040 0:31:39 48eD4k
088 Moerland Ron Hellevoetsluis 027 0:31:42 38eH4k
089 Kreeuselier Conny Hellevoetsluis 101 0:31:51 49eD4k
090 Allersma Eilien Hellevoetsluis 100 0:31:53 50eD4k
091 Mons Desire Hellevoetsluis 099 0:32:00 51eD4k
092 Heide Cindy v d Dirksland 048 0:35:04 52eD4k
093 Zwep Yvonne Stellerunners 049 0:35:05 53eD4k
094 Man in 't Veld Eva Brielle 062 0:39:48 54eD4k
095 Schouwaert Marian Voorne Atletiek 415 0:52:08 55eD4k

Aad van Driel

12 april 2015 10km 1:16:21 Rotterdam Marathon

Ab Snoeij

18 januari 2015 21,1km 1:18:52 Halve van Maassluis
8 februari 2015 16,1km 59:04 Brielle
21 februari 2015 21,1km 1:18:56 Schipluiden
14 maart 2015 21,1km 1:17:54 Halve van Oostvoorne
16 april 2015 3km 10:26 Oud-Beijerland (baancircuit)

Alex Vogelezang

18 januari 2015 21,1km 1:56:51 Halve van Maassluis
12 april 2015 42,2km 4:08:33 Rotterdam Marathon

Alwin van der Elburg

4 januari 2015 10km 50:45 Halve van Westvoorne
14 maart 2015 21,1km 1:40:35 Halve van Oostvoorne

Angelique Kloppenburg

12 april 2015 10km 1:01:21 Rotterdam Marathon

Anneke den Toom

12 april 2015 10km 1:06:03 Rotterdam Marathon

Anneke Epker

14 maart 2015 8km 55:32 Halve van Oostvoorne

Annelies Vos

12 april 2015 42,2km 4:23:20 Rotterdam Marathon

Annemarie Bakker

14 maart 2015 8km 1:03:02 Halve van Oostvoorne

Ben van der Vlugt

4 januari 2015 21,1km 1:46:45 Halve van Westvoorne
12 april 2015 42,2km 3:43:27 Rotterdam Marathon

Bertus Noordzij

18 januari 2015 21,1km 1:57:47 Halve van Maassluis
12 april 2015 42,2km 4:06:05 Rotterdam Marathon

Carola Gevaert

4 januari 2015 21,1km 2:07:53 Halve van Westvoorne
8 maart 2015 21,1km 2:05:48 CPC loop
8 maart 2015 21,1km 2:05:48 CPC loop

Charissa van der Knaap

12 april 2015 10km 1:06:25 Rotterdam Marathon

Charles Creutzburg

8 maart 2015 21,1km 2:04:17 CPC loop
12 april 2015 42,2km 4:33:31 Rotterdam Marathon

Cock Dorst

25 januari 2015 12,6km 53:57 Kruininger Gorscross
8 februari 2015 16,1km 1:00:37 Brielle
14 maart 2015 21,1km 1:20:38 Halve van Oostvoorne
12 april 2015 42,2km 2:57:40 Rotterdam Marathon

Cok Dijkgraaf

14 maart 2015 8km 50:25 Halve van Oostvoorne

Cok van Bodegom

18 januari 2015 21,1km 1:46:04 Halve van Maassluis
8 februari 2015 16,1km 1:21:04 Brielle
14 maart 2015 21,1km 1:45:54 Halve van Oostvoorne

Daniella Donders

8 maart 2015 21,1km 2:06:46 CPC loop
12 april 2015 42,2km 4:41:52 Rotterdam Marathon

Danny van Wijk

18 januari 2015 21,1km 1:23:40 Halve van Maassluis

Dennis Postma

21 februari 2015 42,2km 3:43:42 Westenschouwen, Trail by the Sea

Diana Willemsen

4 januari 2015 21,1km 2:07:41 Halve van Westvoorne
18 januari 2015 21,1km 1:57:07 Halve van Maassluis

Edward van Noordenne

12 april 2015 42,2km 4:33:45 Rotterdam Marathon

Elaine Gevaert

4 januari 2015 21,1km 1:55:58 Halve van Westvoorne
8 maart 2015 21,1km 1:53:37 CPC loop

Eric van Es

8 februari 2015 16,1km 1:11:59 Brielle
12 april 2015 42,2km 4:06:40 Rotterdam Marathon

Eric Zinnemers

14 maart 2015 21,1km 1:45:38 Halve van Oostvoorne

Erik de Winkel

4 januari 2015 21,1km 1:51:02 Halve van Westvoorne
1 februari 2015 25km 2:20:30 Apeldoorn Midwinter Marathon
8 maart 2015 21,1km 1:45:25 CPC loop

Erwin Pelger

8 maart 2015 21,1km 2:08:45 CPC loop
12 april 2015 10km 57:42 Rotterdam Marathon

Erwin Poldervaart

8 februari 2015 16,1km 58:06 Brielle
21 februari 2015 21,1km 1:15:01 Schipluiden
14 maart 2015 21,1km 1:13:43 Halve van Oostvoorne
12 april 2015 42,2km 2:39:12 Rotterdam Marathon

Esther Bloks

14 maart 2015 8km 55:25 Halve van Oostvoorne

Ferry Becker

8 maart 2015 21,1km 2:00:16 CPC loop

Ferry Engel

11 januari 2015 21,1km 1:21:59 Halve van Egmond
18 januari 2015 21,1km 1:20:16 Halve van Maassluis
14 maart 2015 21,1km 1:24:27 Halve van Oostvoorne

Ferry Kros

4 januari 2015 21,1km 1:52:45 Halve van Westvoorne
1 februari 2015 25km 2:05:00 Apeldoorn Midwinter Marathon
21 februari 2015 21,1km 2:15:10 Westenschouwen, Trail by the Sea
14 maart 2015 21,1km 1:41:20 Halve van Oostvoorne
12 april 2015 42,2km 3:56:28 Rotterdam Marathon

Frans Westerveld

4 januari 2015 21,1km 1:52:58 Halve van Westvoorne
8 maart 2015 21,1km 1:56:47 CPC loop

Fred de Zeeuw

4 januari 2015 21,1km 1:53:14 Halve van Westvoorne
1 februari 2015 25km 2:19:29 Apeldoorn Midwinter Marathon
12 april 2015 42,2km 4:04:02 Rotterdam Marathon

Fred Neubauer

4 januari 2015 21,1km 2:07:47 Halve van Westvoorne
8 maart 2015 21,1km 1:58:40 CPC loop

Gail Tsang

4 januari 2015 10km 1:02:39 Halve van Westvoorne
12 april 2015 10km 1:09:50 Rotterdam Marathon

Galina Mamaewa

4 januari 2015 21,1km 2:14:01 Halve van Westvoorne
25 januari 2015 8,8km 53:27 Kruininger Gorscross
12 april 2015 42,2km 5:10:11 Rotterdam Marathon

Gerard van Haastert

4 januari 2015 21,1km 1:59:07 Halve van Westvoorne

Hanneke Dumont

12 april 2015 10km 1:22:50 Rotterdam Marathon

Hans Berendsen

4 januari 2015 21,1km 1:20:56 Halve van Westvoorne
8 februari 2015 16,1km 58:14 Brielle
14 maart 2015 21,1km 1:15:56 Halve van Oostvoorne

Hans van Bommel jr.

4 januari 2015 21,1km 1:37:32 Halve van Westvoorne
14 maart 2015 21,1km 1:31:24 Halve van Oostvoorne
12 april 2015 42,2km 3:20:04 Rotterdam Marathon

Harold Kunst

12 april 2015 42,2km 3:41:33 Rotterdam Marathon

Henk van Leeuwen

18 januari 2015 5km 15:04 Halve van Maassluis

Inge Kasius

4 januari 2015 21,1km 2:12:48 Halve van Westvoorne
8 februari 2015 16,1km 1:29:17 Brielle
14 maart 2015 21,1km 1:54:35 Halve van Oostvoorne
12 april 2015 42,2km 4:25:52 Rotterdam Marathon

Iskander van der Wijngaard

18 januari 2015 21,1km 1:17:44 Halve van Maassluis
8 februari 2015 16,1km 59:40 Brielle
14 maart 2015 21,1km 1:17:15 Halve van Oostvoorne

Jacky Bareman

8 februari 2015 16,1km 1:34:34 Brielle
8 maart 2015 21,1km 2:02:38 CPC loop

Jacqueline Nodelijk

8 maart 2015 21,1km 2:07:10 CPC loop

Jan Kweekel

8 februari 2015 16,1km 1:13:07 Brielle
14 maart 2015 21,1km 1:36:53 Halve van Oostvoorne

Jan van Lier

12 april 2015 42,2km 4:00:19 Rotterdam Marathon

Jan Wegereef

4 januari 2015 21,1km 1:43:10 Halve van Westvoorne
1 februari 2015 25km 1:59:47 Apeldoorn Midwinter Marathon
14 maart 2015 21,1km 1:44:06 Halve van Oostvoorne

Jason Duijvenvoorde

4 januari 2015 21,1km 1:54:03 Halve van Westvoorne
12 april 2015 42,2km 4:00:38 Rotterdam Marathon

Joek Sloots

4 januari 2015 21,1km 1:57:32 Halve van Westvoorne
18 januari 2015 21,1km 1:48:52 Halve van Maassluis
8 februari 2015 16,1km 1:20:49 Brielle
14 maart 2015 21,1km 1:49:27 Halve van Oostvoorne

John Lavooij

1 februari 2015 25km 2:17:53 Apeldoorn Midwinter Marathon

Jolanda den Boer

14 maart 2015 8km 57:22 Halve van Oostvoorne

Jolanda Troost

14 maart 2015 8km 38:17 Halve van Oostvoorne

Joop den Toom

12 april 2015 10km 1:06:03 Rotterdam Marathon

Joop Helbers

18 januari 2015 21,1km 1:19:06 Halve van Maassluis
21 februari 2015 21,1km 1:40:03 Westenschouwen, Trail by the Sea
14 maart 2015 21,1km 1:15:59 Halve van Oostvoorne
12 april 2015 42,2km 2:46:02 Rotterdam Marathon

Jos Mastenbroek

21 februari 2015 21,1km 2:10:45 Westenschouwen, Trail by the Sea
12 april 2015 42,2km 3:40:28 Rotterdam Marathon

Jos Noordegraaf

21 februari 2015 21,1km 1:58:23 Westenschouwen, Trail by the Sea
12 april 2015 42,2km 3:36:35 Rotterdam Marathon

Kees Noordhoek

8 maart 2015 21,1km 1:58:34 CPC loop
22 maart 2015 42,2km 4:37:11 Marathon Rome

Leo van Zielst

18 januari 2015 21,1km 1:52:22 Halve van Maassluis
8 februari 2015 16,1km 1:20:27 Brielle
8 maart 2015 21,1km 1:43:39 CPC loop
14 maart 2015 21,1km 1:42:59 Halve van Oostvoorne

Linda de Brabander

12 april 2015 10km 1:01:49 Rotterdam Marathon

Louis de Koning

8 februari 2015 16,1km 1:00:32 Brielle
19 april 2015 42,2km 2:53:45 Enschede marathon

Maarten Krijnen

11 januari 2015 21,1km 1:26:49 Halve van Egmond
8 februari 2015 16,1km 1:01:25 Brielle
14 maart 2015 21,1km 1:21:55 Halve van Oostvoorne

Manuela Stoop

12 april 2015 10km 1:16:11 Rotterdam Marathon

Marc van Bergen

4 januari 2015 21,1km 2:22:14 Halve van Westvoorne
8 maart 2015 21,1km 2:07:06 CPC loop

Marcel Bewier

4 januari 2015 21,1km 1:58:03 Halve van Westvoorne
8 maart 2015 21,1km 1:54:55 CPC loop

Marcel Fiering

11 januari 2015 21,1km 1:24:07 Halve van Egmond
15 maart 2015 10km 35:43 Lenteloop Albrandswaard, Rhoon
12 april 2015 42,2km 2:52:53 Rotterdam Marathon

Marcel Gelton

11 januari 2015 21,1km 1:26:54 Halve van Egmond
22 maart 2015 21,1km 1:22:03 Dijkenloop, Hoorn
12 april 2015 42,2km 3:07:30 Rotterdam Marathon

Marcel van Rumpt

4 januari 2015 10km 47:25 Halve van Westvoorne

Marielle Bos

12 april 2015 10km 1:16:31 Rotterdam Marathon

Marjan de Waaij

4 januari 2015 21,1km 1:42:34 Halve van Westvoorne
18 januari 2015 21,1km 1:36:40 Halve van Maassluis
25 januari 2015 12,6km 1:06:46 Kruininger Gorscross
21 februari 2015 21,1km 1:35:22 Schipluiden
14 maart 2015 21,1km 1:33:59 Halve van Oostvoorne
12 april 2015 42,2km 3:28:55 Rotterdam Marathon

Marjolein Both

8 maart 2015 21,1km 1:56:09 CPC loop

Marvin Verroen

8 maart 2015 21,1km 1:47:18 CPC loop
12 april 2015 42,2km 3:55:06 Rotterdam Marathon

Melvin Kruik

18 januari 2015 5km 17:59 Halve van Maassluis
25 januari 2015 4,6km 18:39 Kruininger Gorscross

Michiel Stijntjes

21 februari 2015 42,2km 4:38:51 Westenschouwen, Trail by the Sea
14 maart 2015 21,1km 1:35:31 Halve van Oostvoorne
12 april 2015 42,2km 3:42:35 Rotterdam Marathon

Mieke van den Bos

25 januari 2015 4,6km 25:23 Kruininger Gorscross

Miriam Oomen

4 januari 2015 21,1km 1:55:58 Halve van Westvoorne
14 maart 2015 21,1km 1:46:51 Halve van Oostvoorne
12 april 2015 42,2km 4:03:24 Rotterdam Marathon

Monique Baars

1 februari 2015 25km 2:19:28 Apeldoorn Midwinter Marathon
14 maart 2015 21,1km 1:48:21 Halve van Oostvoorne
12 april 2015 42,2km 4:03:24 Rotterdam Marathon

Nabil Allal el Bakhti

12 april 2015 42,2km 3:43:18 Rotterdam Marathon

Natasja de Winkel

8 maart 2015 5km 30:57 CPC loop
12 april 2015 10km 1:08:14 Rotterdam Marathon

Nathalie van Dalsen

8 maart 2015 21,1km 2:08:10 CPC loop

Nel van der Knaap

14 maart 2015 8km 52:42 Halve van Oostvoorne
12 april 2015 10km 1:09:38 Rotterdam Marathon

Nicolette Mager

8 februari 2015 5km 33:01 Brielle
14 maart 2015 8km 57:24 Halve van Oostvoorne
12 april 2015 10km 1:14:21 Rotterdam Marathon

Niels van den Boogert

14 maart 2015 21,1km 1:35:15 Halve van Oostvoorne

Niels Vernes

18 januari 2015 21,1km 1:33:25 Halve van Maassluis
8 februari 2015 5km 19:55 Brielle
16 april 2015 3km 11:22 Oud-Beijerland (baancircuit)

Paul van der Leij

8 februari 2015 16,1km 1:19:10 Brielle
14 maart 2015 21,1km 1:50:53 Halve van Oostvoorne

Paula Groot

4 januari 2015 21,1km 1:51:13 Halve van Westvoorne
8 februari 2015 16,1km 1:21:16 Brielle
21 februari 2015 42,2km 5:00:13 Westenschouwen, Trail by the Sea
14 maart 2015 21,1km 1:48:12 Halve van Oostvoorne
12 april 2015 42,2km 4:01:59 Rotterdam Marathon

Peter Schinkel

4 januari 2015 21,1km 1:48:13 Halve van Westvoorne

Ralph van de Grijp

12 april 2015 42,2km 3:34:40 Rotterdam Marathon

Ramon van der Knaap

4 januari 2015 21,1km 1:44:18 Halve van Westvoorne
25 januari 2015 12,6km 59:16 Kruininger Gorscross
21 februari 2015 21,1km 1:55:17 Westenschouwen, Trail by the Sea
14 maart 2015 21,1km 1:27:16 Halve van Oostvoorne

Raymond Wissink

4 januari 2015 21,1km 1:55:48 Halve van Westvoorne
1 februari 2015 25km 2:20:32 Apeldoorn Midwinter Marathon
14 maart 2015 21,1km 1:54:48 Halve van Oostvoorne
12 april 2015 42,2km 3:56:01 Rotterdam Marathon

Remko Kap

4 januari 2015 21,1km 1:33:43 Halve van Westvoorne
25 januari 2015 12,6km 49:22 Kruininger Gorscross
21 februari 2015 42,2km 3:43:07 Westenschouwen, Trail by the Sea
12 april 2015 42,2km 2:46:18 Rotterdam Marathon

Richard Goedendorp

8 februari 2015 16,1km 1:11:23 Brielle
14 maart 2015 21,1km 1:36:08 Halve van Oostvoorne
12 april 2015 42,2km 3:57:46 Rotterdam Marathon

Richard Granneman

4 januari 2015 21,1km 1:51:06 Halve van Westvoorne
8 februari 2015 16,1km 1:21:13 Brielle
21 februari 2015 42,2km 5:00:10 Westenschouwen, Trail by the Sea
14 maart 2015 21,1km 1:45:40 Halve van Oostvoorne
12 april 2015 42,2km 4:04:21 Rotterdam Marathon

Richard van Waardenburg

4 januari 2015 21,1km 1:24:33 Halve van Westvoorne
18 januari 2015 21,1km 1:20:41 Halve van Maassluis
8 februari 2015 16,1km 1:01:17 Brielle
21 februari 2015 21,1km 1:22:20 Schipluiden
8 maart 2015 21,1km 1:21:47 CPC loop
14 maart 2015 21,1km 1:18:45 Halve van Oostvoorne
12 april 2015 42,2km 2:59:37 Rotterdam Marathon

Rob van der Elburg

1 februari 2015 25km 2:20:32 Apeldoorn Midwinter Marathon
12 april 2015 42,2km 4:01:42 Rotterdam Marathon

Ron Moerland

8 februari 2015 5km 20:12 Brielle
21 februari 2015 42,2km 4:36:04 Westenschouwen, Trail by the Sea
14 maart 2015 21,1km 1:31:12 Halve van Oostvoorne
12 april 2015 42,2km 4:01:41 Rotterdam Marathon
16 april 2015 3km 11:39 Oud-Beijerland (baancircuit)

Ruud de Grood

14 maart 2015 21,1km 1:56:09 Halve van Oostvoorne
12 april 2015 42,2km 4:05:08 Rotterdam Marathon

Ruud de Vette

18 januari 2015 21,1km 1:23:41 Halve van Maassluis
21 februari 2015 42,2km 3:43:39 Westenschouwen, Trail by the Sea
12 april 2015 42,2km 2:56:20 Rotterdam Marathon

Sander Klink

4 januari 2015 21,1km 1:36:12 Halve van Westvoorne
8 februari 2015 16,1km 1:07:55 Brielle
14 maart 2015 21,1km 1:34:30 Halve van Oostvoorne
12 april 2015 42,2km 3:25:42 Rotterdam Marathon

Sander Peters

4 januari 2015 21,1km 1:24:01 Halve van Westvoorne
8 februari 2015 16,1km 59:24 Brielle
14 maart 2015 21,1km 1:29:15 Halve van Oostvoorne

Silvia Vendeloo

8 maart 2015 10km 57:41 CPC loop

Sylvia Schinkel

4 januari 2015 10km 1:02:39 Halve van Westvoorne
8 maart 2015 21,1km 2:06:46 CPC loop
12 april 2015 42,2km 4:41:52 Rotterdam Marathon

Thomas White

12 april 2015 42,2km 3:11:24 Rotterdam Marathon

Tjerk Hazeveld

4 januari 2015 21,1km 2:09:11 Halve van Westvoorne
18 januari 2015 21,1km 1:58:54 Halve van Maassluis
14 maart 2015 21,1km 1:55:54 Halve van Oostvoorne
12 april 2015 42,2km 4:18:11 Rotterdam Marathon

Ton Roelofs

12 april 2015 10km 1:16:22 Rotterdam Marathon

Ton van Almen

4 januari 2015 10km 55:02 Halve van Westvoorne
18 januari 2015 10km 54:35 Halve van Maassluis

Victor Phaff

18 januari 2015 21,1km 1:15:06 Halve van Maassluis
14 maart 2015 21,1km 1:18:43 Halve van Oostvoorne
12 april 2015 42,2km 2:41:21 Rotterdam Marathon

Vincent Bloem

18 januari 2015 10km 36:08 Halve van Maassluis
24 januari 2015 10km 35:54 Hoornaar
8 februari 2015 5km 17:26 Brielle
8 maart 2015 10km 36:44 CPC loop
12 april 2015 10km 39:52 Rotterdam Marathon
16 april 2015 3km 10:19 Oud-Beijerland (baancircuit)

Walter Lodder

4 januari 2015 21,1km 1:36:49 Halve van Westvoorne
14 maart 2015 21,1km 1:31:26 Halve van Oostvoorne
12 april 2015 42,2km 3:26:08 Rotterdam Marathon

Wendy Maas

12 april 2015 10km 1:16:22 Rotterdam Marathon

Willem Spoorendonk

4 januari 2015 21,1km 2:08:12 Halve van Westvoorne
8 maart 2015 21,1km 1:59:49 CPC loop

Wim Padmos

4 januari 2015 21,1km 1:25:53 Halve van Westvoorne
18 januari 2015 21,1km 1:28:46 Halve van Maassluis
25 januari 2015 12,6km 52:20 Kruininger Gorscross
21 februari 2015 21,1km 1:19:23 Schipluiden
14 maart 2015 21,1km 1:18:27 Halve van Oostvoorne

Wobbe van der Linden

12 april 2015 42,2km 4:59:15 Rotterdam Marathon
Jaarrecords 2015 - Heren
5 kmNaamTijdDatumLoop
Hsen Henk van Leeuwen 0:15:04 18 jan 2015 Halve van Maassluis
H35 - - - -
H40 Ron Moerland 0:20:12 8 feb 2015 Brielle
H45 - - - -
H50 - - - -
H55 - - - -
H60 - - - -
10 kmNaamTijdDatumLoop
Hsen Vincent Bloem 0:35:54 24 jan 2015 Hoornaar
H35 Alwin van der Elburg 0:50:45 4 jan 2015 Halve van Westvoorne
H40 Marcel Fiering 0:35:43 15 mrt 2015 Lenteloop Albrandswaard, Rhoon
H45 Erwin Pelger 0:57:42 12 apr 2015 Rotterdam Marathon
H50 - - - -
H55 Joop den Toom 1:06:03 12 apr 2015 Rotterdam Marathon
H60 Ton van Almen 0:54:35 18 jan 2015 Halve van Maassluis
15 kmNaamTijdDatumLoop
Hsen - - - -
H35 - - - -
H40 - - - -
H45 - - - -
H50 - - - -
H55 - - - -
H60 - - - -
10 EMNaamTijdDatumLoop
Hsen Erwin Poldervaart 0:58:06 8 feb 2015 Brielle
H35 Sander Peters 0:59:24 8 feb 2015 Brielle
H40 Paul van der Leij 1:19:10 8 feb 2015 Brielle
H45 Hans Berendsen 0:58:14 8 feb 2015 Brielle
H50 Ab Snoeij 0:59:04 8 feb 2015 Brielle
H55 - - - -
H60 Joek Sloots 1:20:49 8 feb 2015 Brielle
½ marathonNaamTijdDatumLoop
Hsen Erwin Poldervaart 1:13:43 14 mrt 2015 Halve van Oostvoorne
H35 Joop Helbers 1:15:59 14 mrt 2015 Halve van Oostvoorne
H40 Victor Phaff 1:15:06 18 jan 2015 Halve van Maassluis
H45 Hans Berendsen 1:15:56 14 mrt 2015 Halve van Oostvoorne
H50 Ab Snoeij 1:17:54 14 mrt 2015 Halve van Oostvoorne
H55 Ruud de Vette 1:23:41 18 jan 2015 Halve van Maassluis
H60 Cok van Bodegom 1:45:54 14 mrt 2015 Halve van Oostvoorne
marathonNaamTijdDatumLoop
Hsen Erwin Poldervaart 2:39:12 12 apr 2015 Rotterdam Marathon
H35 Joop Helbers 2:46:02 12 apr 2015 Rotterdam Marathon
H40 Victor Phaff 2:41:21 12 apr 2015 Rotterdam Marathon
H45 Louis de Koning 2:53:45 19 apr 2015 Enschede marathon
H50 Cock Dorst 2:57:40 12 apr 2015 Rotterdam Marathon
H55 Ruud de Vette 2:56:20 12 apr 2015 Rotterdam Marathon
H60 Raymond Wissink 3:56:01 12 apr 2015 Rotterdam Marathon
Jaarrecords 2015 - Dames
5 kmNaamTijdDatumLoop
Dsen Natasja de Winkel 0:30:57 8 mrt 2015 CPC loop
D35 - - - -
D40 - - - -
D45 Nicolette Mager 0:33:01 8 feb 2015 Brielle
D50 - - - -
D55 - - - -
D60 - - - -
10 kmNaamTijdDatumLoop
Dsen Silvia Vendeloo 0:57:41 8 mrt 2015 CPC loop
D35 Charissa van der Knaap 1:06:25 12 apr 2015 Rotterdam Marathon
D40 Linda de Brabander 1:01:49 12 apr 2015 Rotterdam Marathon
D45 Angelique Kloppenburg 1:01:21 12 apr 2015 Rotterdam Marathon
D50 Sylvia Schinkel 1:02:39 4 jan 2015 Halve van Westvoorne
D55 - - - -
D60 Nel van der Knaap 1:09:38 12 apr 2015 Rotterdam Marathon
15 kmNaamTijdDatumLoop
Dsen - - - -
D35 - - - -
D40 - - - -
D45 - - - -
D50 - - - -
D55 - - - -
D60 - - - -
10 EMNaamTijdDatumLoop
Dsen Inge Kasius 1:29:17 8 feb 2015 Brielle
D35 - - - -
D40 - - - -
D45 Paula Groot 1:21:16 8 feb 2015 Brielle
D50 Jacky Bareman 1:34:34 8 feb 2015 Brielle
D55 - - - -
D60 - - - -
½ marathonNaamTijdDatumLoop
Dsen Elaine Gevaert 1:53:37 8 mrt 2015 CPC loop
D35 Miriam Oomen 1:46:51 14 mrt 2015 Halve van Oostvoorne
D40 Monique Baars 1:48:21 14 mrt 2015 Halve van Oostvoorne
D45 Paula Groot 1:48:12 14 mrt 2015 Halve van Oostvoorne
D50 Marjan de Waaij 1:33:59 14 mrt 2015 Halve van Oostvoorne
D55 - - - -
D60 - - - -
marathonNaamTijdDatumLoop
Dsen Annelies Vos 4:23:20 12 apr 2015 Rotterdam Marathon
D35 Miriam Oomen 4:03:24 12 apr 2015 Rotterdam Marathon
D40 Monique Baars 4:03:24 12 apr 2015 Rotterdam Marathon
D45 Paula Groot 4:01:59 12 apr 2015 Rotterdam Marathon
D50 Marjan de Waaij 3:28:55 12 apr 2015 Rotterdam Marathon
D55 - - - -
D60 - - - -
Jaarrecords 2015 - Heren (baan)
800mNaamTijdDatumLoop
Hsen - - - -
H35 - - - -
H40 - - - -
H45 - - - -
H50 - - - -
H55 - - - -
H60 - - - -
1000mNaamTijdDatumLoop
Hsen - - - -
H35 - - - -
H40 - - - -
H45 - - - -
H50 - - - -
H55 - - - -
H60 - - - -
1500mNaamTijdDatumLoop
Hsen - - - -
H35 - - - -
H40 - - - -
H45 - - - -
H50 - - - -
H55 - - - -
H60 - - - -
3000mNaamTijdDatumLoop
Hsen Vincent Bloem 0:10:19 16 apr 2015 Oud-Beijerland (baancircuit)
H35 - - - -
H40 - - - -
H45 Ron Moerland 0:11:39 16 apr 2015 Oud-Beijerland (baancircuit)
H50 Ab Snoeij 0:10:26 16 apr 2015 Oud-Beijerland (baancircuit)
H55 - - - -
H60 - - - -
5000mNaamTijdDatumLoop
Hsen - - - -
H35 - - - -
H40 - - - -
H45 - - - -
H50 - - - -
H55 - - - -
H60 - - - -
Jaarrecords 2015 - Dames (baan)
800mNaamTijdDatumLoop
Dsen - - - -
D35 - - - -
D40 - - - -
D45 - - - -
D50 - - - -
D55 - - - -
D60 - - - -
1000mNaamTijdDatumLoop
Dsen - - - -
D35 - - - -
D40 - - - -
D45 - - - -
D50 - - - -
D55 - - - -
D60 - - - -
1500mNaamTijdDatumLoop
Dsen - - - -
D35 - - - -
D40 - - - -
D45 - - - -
D50 - - - -
D55 - - - -
D60 - - - -
3000mNaamTijdDatumLoop
Dsen - - - -
D35 - - - -
D40 - - - -
D45 - - - -
D50 - - - -
D55 - - - -
D60 - - - -
5000mNaamTijdDatumLoop
Dsen - - - -
D35 - - - -
D40 - - - -
D45 - - - -
D50 - - - -
D55 - - - -
D60 - - - -

Op 24 maart 2015, tijdens de jaarvergadering van Pallas'93, was er de huldiging van de klassementwinnaars.

De prijswinnaars van dit jaar bij de dames zijn: 1e - Inge Kasius, 2e - Miriam Oomen, 3e - Monique Baars en bij de heren: 1e - Sander Klink, 2e - Ramon van der Knaap, 3e - Leo van Zielst.
De prijzen zijn weer beschikbaar gesteld door Schoonheidssalon & Pedicure Melinda.

(Klik op de foto voor een vergroting)

Uitslag Richttijd
PosNaamPuntenGrp3km5km10km15km10EM21,1km42,2km
1eH Sander Klink 476 B 11:45 20:25 0:42:25 1:05:45 1:11:05 1:34:25 3:19:10
2eH Ramon van der Knaap 389 B 11:55 20:45 0:43:10 1:06:55 1:12:20 1:36:05 3:22:35
3eH Leo van Zielst 373 C 12:55 22:35 0:46:55 1:12:40 1:18:30 1:44:20 3:40:00
4eH Richard Goedendorp 368 B 12:00 20:50 0:43:25 1:07:15 1:12:40 1:36:30 3:23:35
5eH Iskander van der Wijngaard 346 A 10:30 18:20 0:38:05 0:59:05 1:03:50 1:24:50 2:58:55
6eH Ron Moerland 329 B 13:30 23:30 0:48:50 1:15:45 1:21:50 1:48:40 3:49:15
7eH Richard van Waardenburg 321 A 10:25 18:15 0:37:55 0:58:45 1:03:30 1:24:20 2:57:50
8eH Richard Granneman 319 B 12:45 22:15 0:46:10 1:11:35 1:17:20 1:42:45 3:36:40
9eH Frans Westerveld 278 C 14:45 25:40 0:53:20 1:22:45 1:29:25 1:58:45 4:10:30
10eH Ab Snoeij 277 A 10:15 17:50 0:37:05 0:57:30 1:02:10 1:22:35 2:54:05
1eD Inge Kasius 275 D 15:00 26:10 0:54:20 1:24:15 1:31:00 2:00:55 4:15:00
11eH Hans Berendsen 272 A 09:55 17:20 0:36:00 0:55:50 1:00:20 1:20:05 2:49:00
12eH Sander Peters 271 A 10:25 18:10 0:37:45 0:58:30 1:03:15 1:24:00 2:57:15
13eH Ben van der Vlugt 262 B 12:40 22:05 0:45:50 1:11:00 1:16:45 1:42:00 3:35:05
14eH Cock Dorst 249 A 10:35 18:25 0:38:15 0:59:20 1:04:05 1:25:10 2:59:35
15eH Eric van Es 246 B 12:20 21:30 0:44:45 1:09:25 1:15:00 1:39:40 3:30:10
16eH Ferry Kros 241 B 13:35 23:40 0:49:15 1:16:15 1:22:25 1:49:30 3:50:55
17eH Michiel Stijntjes 237 B 13:15 23:00 0:47:55 1:14:10 1:20:10 1:46:30 3:44:40
18eH Joek Sloots 236 B 13:55 24:15 0:50:25 1:18:10 1:24:30 1:52:15 3:56:40
19eH Niels Vernes 223 B 12:25 21:40 0:45:05 1:09:55 1:15:30 1:40:20 3:31:35
20eH Jos Mastenbroek 209 B 12:35 21:55 0:45:30 1:10:30 1:16:15 1:41:15 3:33:35
2eD Miriam Oomen 205 B 14:50 25:55 0:53:50 1:23:25 1:30:10 1:59:45 4:12:35
21eH Maarten Krijnen 204 A 10:15 17:50 0:37:00 0:57:20 1:02:00 1:22:20 2:53:40
22eH Marcel Bewier 202 D 15:05 26:20 0:54:45 1:24:50 1:31:40 2:01:45 4:16:50
23eH Ferry Engel 185 A 10:05 17:40 0:36:40 0:56:50 1:01:25 1:21:30 2:52:00
24eH Wim Padmos 185 A 10:05 17:40 0:36:40 0:56:50 1:01:25 1:21:35 2:52:05
3eD Monique Baars 183 B 14:05 24:35 0:51:05 1:19:10 1:25:35 1:53:40 3:59:40
25eH Marcel Gelton 177 A 11:05 19:20 0:40:15 1:02:25 1:07:25 1:29:35 3:08:55
26eH Erik de Winkel 174 B 13:40 23:50 0:49:35 1:16:50 1:23:05 1:50:20 3:52:45
4eD Paula Groot 166 B 13:40 23:55 0:49:40 1:16:55 1:23:10 1:50:25 3:52:55
27eH Remko Kap 166 A 10:30 18:20 0:38:05 0:59:00 1:03:45 1:24:40 2:58:35
28eH Ruud de Vette 163 A 11:00 19:10 0:39:50 1:01:45 1:06:45 1:28:40 3:07:05
29eH Fred de Zeeuw 162 B 13:55 24:15 0:50:30 1:18:15 1:24:35 1:52:20 3:57:00
5eD Marjan de Waaij 159 A 12:05 21:05 0:43:50 1:07:55 1:13:25 1:37:30 3:25:45
30eH Jan Kweekel 150 B 12:00 21:00 0:43:35 1:07:35 1:13:05 1:37:05 3:24:45
6eD Silvia Vendeloo 145 F 16:55 29:30 1:01:15 1:34:55 1:42:35 2:16:20 4:47:30
31eH Tjerk Hazeveld 145 C 15:20 26:45 0:55:35 1:26:10 1:33:10 2:03:45 4:21:00
32eH Thijs Walstra 137 B 12:45 22:10 0:46:05 1:11:20 1:17:10 1:42:25 3:36:05
33eH Cok van Bodegom 134 C 13:35 23:45 0:49:20 1:16:30 1:22:40 1:49:45 3:51:35
34eH John Lavooij 133 B 13:05 22:45 0:47:20 1:13:25 1:19:20 1:45:20 3:42:15
35eH Hans van Bommel 131 C 15:00 26:10 0:54:30 1:24:25 1:31:15 2:01:15 4:15:40
7eD Elaine Gevaert 127 D 14:15 24:50 0:51:35 1:19:55 1:26:20 1:54:45 4:02:00
36eH Walter Lodder 126 B 11:45 20:25 0:42:30 1:05:55 1:11:15 1:34:40 3:19:35
37eH Theo van Dis 122 C 14:45 25:45 0:53:35 1:23:00 1:29:40 1:59:10 4:11:20
38eH Fred Neubauer 121 D 15:40 27:15 0:56:40 1:27:50 1:34:55 2:06:10 4:26:00
39eH Peter Schinkel 120 B 12:55 22:25 0:46:40 1:12:20 1:18:10 1:43:50 3:38:55
8eD Diana Willemsen 118 C 14:00 24:25 0:50:40 1:18:35 1:24:55 1:52:50 3:58:00
9eD Nicolette Mager 117 G 20:35 35:55 1:14:35 1:55:35 2:04:55 2:46:00 5:50:05
40eH Eric Zinnemers 115 B 13:10 23:00 0:47:45 1:14:05 1:20:05 1:46:20 3:44:15
41eH Rien Roskam 115 O 16:20 28:30 0:59:15 1:31:50 1:39:15 2:11:50 4:38:00
42eH Joop Helbers 111 A 10:15 17:50 0:37:00 0:57:20 1:02:00 1:22:20 2:53:35
43eH Paul van der Leij 108 B 13:45 24:00 0:49:50 1:17:15 1:23:30 1:50:55 3:54:00
44eH Dennis Postma 107 A 09:50 17:05 0:35:30 0:55:00 0:59:30 1:19:00 2:46:40
45eH Victor Phaff 103 A 10:05 17:30 0:36:25 0:56:30 1:01:05 1:21:05 2:51:05
46eH Jan Wegereef 101 B 12:55 22:35 0:46:55 1:12:45 1:18:35 1:44:25 3:40:15
47eH Onno Teders 94 C 15:25 26:55 0:55:55 1:26:35 1:33:35 2:04:20 4:22:15
48eH Ton van Almen 91 D 15:05 26:20 0:54:45 1:24:55 1:31:45 2:01:55 4:17:10
49eH Jason Duijvenvoorde 90 B 13:40 23:50 0:49:35 1:16:50 1:23:00 1:50:20 3:52:40
10eD Jacky Bareman 87 F 14:55 25:55 0:53:55 1:23:35 1:30:20 2:00:00 4:13:05
50eH Remco Palm 86 B 13:10 22:55 0:47:45 1:14:00 1:19:55 1:46:10 3:44:00
11eD Nancy Berkelaar 85 E 17:00 29:40 1:01:40 1:35:30 1:43:15 2:17:10 4:49:15
51eH Rob van der Elburg 85 B 14:35 25:25 0:52:50 1:21:55 1:28:30 1:57:35 4:07:55
52eH John Hemmerlé 84 A 10:50 18:50 0:39:15 1:00:45 1:05:40 1:27:15 3:04:00
12eD Esther Bloks 83 E 19:20 33:45 1:10:10 1:48:50 1:57:35 2:36:10 5:29:25
53eH Ruud de Grood 82 C 14:20 25:00 0:51:55 1:20:25 1:26:55 1:55:30 4:03:30
13eD Carola Gevaert 81 D 16:00 27:50 0:57:55 1:29:45 1:37:00 2:08:50 4:31:45
14eD Marielle Grijzenhout 80 F 20:40 36:00 1:14:45 1:55:55 2:05:15 2:46:25 5:51:00
54eH Ralph van de Grijp 80 B 12:25 21:35 0:44:55 1:09:40 1:15:15 1:40:00 3:30:55
55eH Bertus Noordzij 78 E 14:45 25:40 0:53:25 1:22:45 1:29:25 1:58:50 4:10:35
56eH Peter Blok 77 C 14:00 24:25 0:50:40 1:18:35 1:24:55 1:52:45 3:57:55
57eH Gert-Jan Goudappel 76 A 11:20 19:45 0:41:05 1:03:40 1:08:45 1:31:20 3:12:45
58eH Jeroen Duizendstra 75 B 13:50 24:10 0:50:15 1:17:50 1:24:10 1:51:45 3:55:45
15eD Petra Strik 75 C 14:35 25:30 0:53:00 1:22:05 1:28:45 1:57:50 4:08:35
59eH Willem Spoorendonk 73 D 15:25 26:55 0:55:55 1:26:40 1:33:40 2:04:25 4:22:30
60eH Johan Engel 72 F - - - - - - -
61eH Alex Vogelezang 69 C 14:25 25:10 0:52:20 1:21:05 1:27:40 1:56:25 4:05:35
62eH Erwin Poldervaart 69 A 09:20 16:15 0:33:50 0:52:30 0:56:40 1:15:20 2:38:50
63eH Rui Soares Aguiar 69 B 12:55 22:30 0:46:50 1:12:35 1:18:25 1:44:10 3:39:45
64eH Louis de Koning 68 A 10:15 17:55 0:37:15 0:57:40 1:02:20 1:22:50 2:54:40
16eD Nathalie van Dalsen 68 D 16:50 29:20 1:01:00 1:34:35 1:42:10 2:15:45 4:46:20
17eD Heidi Wagner 67 F 19:40 34:20 1:11:20 1:50:30 1:59:25 2:38:40 5:34:40
65eH Niels van den Boogert 65 B 11:35 20:15 0:42:05 1:05:10 1:10:25 1:33:35 3:17:25
66eH Peter Duijvestijn 64 F 19:30 34:00 1:10:40 1:49:35 1:58:25 2:37:15 5:31:40
67eH Nabil Allal el Bakhti 63 B 13:20 23:15 0:48:25 1:15:00 1:21:05 1:47:40 3:47:05
68eH Raymond Wissink 62 B 14:05 24:35 0:51:10 1:19:15 1:25:40 1:53:45 3:59:55
18eD Bianca Pothof 61 D 15:55 27:40 0:57:35 1:29:15 1:36:25 2:08:05 4:30:10
19eD Sandra Kweekel 59 E 19:30 34:00 1:10:45 1:49:35 1:58:30 2:37:20 5:31:55
69eH Maarten Jongeneel 58 E 17:45 30:55 1:04:15 1:39:40 1:47:40 2:23:05 5:01:45
70eH Jack van Tilburg 55 E 17:35 30:35 1:03:35 1:38:30 1:46:30 2:21:25 4:58:20
71eH Jos Geraets 54 F 17:45 30:50 1:04:10 1:39:30 1:47:30 2:22:50 5:01:10
72eH Robert van Lenten 54 B 13:20 23:20 0:48:25 1:15:05 1:21:05 1:47:45 3:47:15
73eH Alco Weeke 51 E - - - - - - -
74eH Charles Timmermans 51 A 10:35 18:25 0:38:15 0:59:15 1:04:00 1:25:00 2:59:20
75eH Hans van Bommel. 51 F - - - - - - -
20eD Silvia Turkenburg 51 E 18:10 31:40 1:05:50 1:42:05 1:50:20 2:26:35 5:09:05
76eH Marcel Straver 46 C 13:55 24:15 0:50:30 1:18:15 1:24:35 1:52:20 3:56:55
21eD Natasja Herman 46 F 21:15 37:00 1:16:55 1:59:15 2:08:50 2:51:10 6:00:55
22eD Simone van Bodegom 46 F 20:15 35:15 1:13:15 1:53:35 2:02:45 2:43:00 5:43:50
77eH Vincent Bloem 46 A 10:05 17:35 0:36:40 0:56:50 1:01:20 1:21:30 2:52:00
78eH Aad van Driel 44 E 16:15 28:20 0:58:55 1:31:20 1:38:45 2:11:10 4:36:35
23eD Anita Schilperoord 42 F 21:20 37:10 1:17:20 1:59:55 2:09:35 2:52:05 6:03:00
79eH Joris Straver 42 C - - - - - - -
80eH Marcel Fiering 42 A 10:50 18:50 0:39:05 1:00:35 1:05:30 1:27:00 3:03:30
24eD Charissa van der Knaap 41 E 17:40 30:50 1:04:05 1:39:25 1:47:25 2:22:40 5:00:55
81eH Leo van der Linden 41 C 13:45 24:00 0:49:50 1:17:15 1:23:30 1:50:55 3:53:55
25eD Anita Langendoen 40 D 17:50 31:05 1:04:35 1:40:10 1:48:15 2:23:45 5:03:15
82eH Erwin Pelger 40 D 15:00 26:10 0:54:20 1:24:10 1:31:00 2:00:50 4:14:55
26eD Marleen Kweekel 39 F 21:50 38:00 1:18:55 2:02:25 2:12:15 2:55:40 6:10:30
27eD Yvonne Hartensveld 39 F 23:30 41:00 1:25:15 2:12:05 2:22:45 3:09:40 6:40:00
83eH Thomas White 38 A 10:35 18:25 0:38:20 0:59:30 1:04:15 1:25:25 3:00:05
28eD Eva Hoogendoorn 37 B 12:25 21:35 0:44:55 1:09:40 1:15:15 1:40:00 3:30:55
84eH Rini van de Westelaken 35 E 20:15 35:20 1:13:25 1:53:45 2:02:55 2:43:20 5:44:25
29eD Annelies Vos 34 D 16:10 28:10 0:58:35 1:30:50 1:38:10 2:10:25 4:35:05
85eH Berry de Gelder 34 E - - - - - - -
30eD Marinda Lub 34 C 16:10 28:15 0:58:40 1:31:00 1:38:20 2:10:35 4:35:30
86eH Kees Noordhoek 33 D 15:20 26:45 0:55:35 1:26:05 1:33:05 2:03:35 4:20:45
87eH Leo Turkenburg 33 D 16:30 28:45 0:59:50 1:32:40 1:40:10 2:13:05 4:40:35
88eH Wobbe van der Linden 32 D 16:30 28:50 0:59:55 1:32:50 1:40:20 2:13:15 4:41:00
31eD Hanneke Dumont 31 F 22:10 38:40 1:20:20 2:04:35 2:14:35 2:58:45 6:17:05
89eH Marcel van Rumpt 31 G 13:05 22:45 0:47:15 1:13:15 1:19:10 1:45:10 3:41:55
90eH Marco Baas 31 D 14:25 25:05 0:52:10 1:20:50 1:27:25 1:56:05 4:04:50
32eD Anneke Epker 29 E 20:00 34:50 1:12:25 1:52:20 2:01:20 2:41:15 5:40:00
91eH Charles Creutzburg 29 C 15:20 26:45 0:55:35 1:26:10 1:33:05 2:03:40 4:20:50
33eD Jolanda Troost 29 A 11:30 20:00 0:41:40 1:04:35 1:09:45 1:32:40 3:15:25
34eD Michelle Knegt 28 F 22:55 39:55 1:23:05 2:08:45 2:19:10 3:04:50 6:29:50
92eH Hans Lazet 26 F 19:35 34:05 1:10:50 1:49:50 1:58:40 2:37:35 5:32:25
35eD Gail Tsang 25 D 17:35 30:35 1:03:35 1:38:35 1:46:30 2:21:30 4:58:25
36eD Lizette van Dam 25 E 19:15 33:35 1:09:50 1:48:10 1:56:55 2:35:20 5:27:35
37eD Franka Boekelman 24 F 23:30 40:55 1:25:00 2:11:45 2:22:25 3:09:10 6:38:55
38eD Monica van der Heuvel 24 E - - - - - - -
93eH Gerard van Haastert 23 B 14:40 25:35 0:53:10 1:22:25 1:29:05 1:58:20 4:09:35
94eH Marc van Bergen 23 D 15:20 26:40 0:55:25 1:25:55 1:32:50 2:03:15 4:20:00
39eD Marian van Dijk 23 D 16:20 28:30 0:59:20 1:31:55 1:39:20 2:11:55 4:38:15
95eH Alwin van der Elburg 22 G - - - - - - -
40eD Daniella Stremme 22 E 19:35 34:05 1:10:55 1:49:55 1:58:50 2:37:50 5:32:55
41eD Jacqueline Nodelijk 21 D 15:40 27:20 0:56:50 1:28:05 1:35:10 2:06:25 4:26:40
42eD Wil Loopik 21 G 19:20 33:40 1:09:55 1:48:25 1:57:05 2:35:35 5:28:10
43eD Elise van Dis 20 D 15:20 26:40 0:55:30 1:26:00 1:32:55 2:03:30 4:20:25
44eD Heleen Koelewijn 20 E 18:15 31:45 1:06:00 1:42:20 1:50:35 2:26:55 5:09:50
96eH Joop Hartog 20 E 17:15 30:05 1:02:30 1:36:50 1:44:40 2:19:00 4:53:10
45eD Nathalie van der Pluym 20 F - - - - - - -
97eH Marvin Verroen 19 B - - - - - - -
46eD Annemarie Bakker 18 O 17:05 29:45 1:01:50 1:35:50 1:43:35 2:17:35 4:50:10
98eH Rob Leijn 18 G - - - - - - -
47eD Sylvia Schinkel 18 D 16:55 29:30 1:01:15 1:35:00 1:42:35 2:16:20 4:47:30
48eD Irene Sjouw 17 F 23:25 40:50 1:24:55 2:11:35 2:22:15 3:08:55 6:38:25
49eD Jolanda den Boer 17 G 20:55 36:25 1:15:40 1:57:20 2:06:45 2:48:25 5:55:10
50eD Mary Noordhoek 17 D 17:45 30:55 1:04:20 1:39:45 1:47:45 2:23:10 5:01:55
51eD Claudia Liebke 16 F 21:40 37:50 1:18:35 2:01:50 2:11:40 2:54:50 6:08:50
52eD Daniella Donders 16 D 17:50 31:05 1:04:40 1:40:15 1:48:20 2:23:50 5:03:25
53eD Galina Mamaewa 16 E 16:05 28:05 0:58:20 1:30:30 1:37:45 2:09:50 4:33:55
54eD Merel Boerstra 16 G - - - - - - -
55eD Nel van der Knaap 15 D 16:40 29:00 1:00:20 1:33:35 1:41:05 2:14:20 4:43:20
56eD Debra Brouwn 13 F - - - - - - -
57eD Marja Willekes 13 G - - - - - - -
99eH Ronald Claessen 13 F - - - - - - -
100eH Danny van Wijk 12 A 10:00 17:25 0:36:15 0:56:10 1:00:40 1:20:40 2:50:05
58eD Denise 't Hardt 12 ? - - - - - - -
101eH Henk van Leeuwen 12 A 09:15 16:05 0:33:30 0:51:55 0:56:05 1:14:30 2:37:10
102eH Leen van der Wiel 12 E 23:45 41:25 1:26:10 2:13:35 2:24:20 3:11:45 6:44:25
103eH Mark Jooren 12 G - - - - - - -
104eH Melvin Kruik 12 G - - - - - - -
105eH Ferry Becker 11 D 14:35 25:30 0:52:55 1:22:05 1:28:40 1:57:50 4:08:30
59eD Vivianne Kleijn 10 F - - - - - - -
60eD Cerise Metaal 9 F - - - - - - -
106eH Jos Noordegraaf 9 B 13:30 23:30 0:48:50 1:15:40 1:21:45 1:48:40 3:49:10
107eH Bas Pronk 8 G - - - - - - -
61eD Brenda Heuvelman 8 O - - - - - - -
108eH Cok Dijkgraaf 7 C 14:20 25:00 0:52:00 1:20:35 1:27:05 1:55:40 4:03:55
62eD Elza Broecks 6 F 21:40 37:40 1:18:20 2:01:30 2:11:15 2:54:20 6:07:50
63eD Sylvia Hogerheijde 5 O - - - - - - -
64eD Daphne de Vette 4 D - - - - - - -
65eD Willeke Lageweg 4 F - - - - - - -
109eH Aad ? 3 ? - - - - - - -
66eD Heleen Machielse 3 F - - - - - - -
110eH Jacques Slingerland 3 C 13:10 22:55 0:47:35 1:13:45 1:19:45 1:45:55 3:43:25
111eH Peter van Meel 3 D 16:00 27:55 0:58:00 1:29:55 1:37:10 2:09:05 4:32:20
112eH Ton Roelofs 3 E 17:50 31:00 1:04:30 1:39:55 1:48:00 2:23:30 5:02:40
113eH Arnold Mastenbroek 2 D - - - - - - -
67eD Ellen van Leeuwen 1 B - - - - - - -
114eH Jorgen Westbroek 1 B 16:00 27:55 0:58:05 1:30:05 1:37:20 2:09:15 4:32:40
68eD Mieke van den Bos 1 D - - - - - - -
69eD Natasja de Winkel 1 D - - - - - - -
70eD Sabine van der Vecht 1 E - - - - - - -
71eD Wendy Maas 1 E 17:00 29:35 1:01:30 1:35:20 1:43:05 2:16:55 4:48:45
- Aad Zuiderwijk - D - - - - - - -
- André Raaijmakers - E - - - - - - -
- Angelique Kloppenburg - E - - - - - - -
- Anneke den Toom - E 16:35 28:55 1:00:10 1:33:10 1:40:45 2:13:50 4:42:15
- Annemarie Schuitemaker - E - - - - - - -
- Annemieke Muller - E - - - - - - -
- Annet Krijgsman - O - - - - - - -
- Anouk Plune - D - - - - - - -
- Arie Verweij - C - - - - - - -
- Arie Voogt - E - - - - - - -
- Arjan Megens - D - - - - - - -
- Bob Schot - D - - - - - - -
- Chris Ouwendijk - D - - - - - - -
- Claire Kruys - E - - - - - - -
- Claudia Erdmann - E - - - - - - -
- Danielle Verschuur - E - - - - - - -
- Danny Reichardt - D - - - - - - -
- Dennis Kuijpers - D 15:55 27:45 0:57:40 1:29:25 1:36:35 2:08:20 4:30:40
- Desna Troost - E - - - - - - -
- Dolores Smits - F 23:10 40:20 1:23:50 2:10:00 2:20:30 3:06:35 6:33:30
- Elvira Wetter - C - - - - - - -
- Eric Schipper - D 15:25 26:55 0:56:00 1:26:50 1:33:50 2:04:35 4:22:50
- Erlinde Karreman - C 14:25 25:10 0:52:20 1:21:05 1:27:40 1:56:25 4:05:30
- Evelien Smit - O - - - - - - -
- Ferry de Graaf - B - - - - - - -
- Ferry ten Hove - A 10:35 18:25 0:38:20 0:59:25 1:04:10 1:25:15 2:59:50
- Harold Kunst - B - - - - - - -
- Heleen Boender - O - - - - - - -
- Hugo van Leeuwen - B - - - - - - -
- Ilona Groen in't Woud - E - - - - - - -
- Jack Krinkels - E - - - - - - -
- Jan Hillenga - C - - - - - - -
- Jan van Lier - D 13:45 24:00 0:49:50 1:17:15 1:23:30 1:50:55 3:54:00
- Jenny Werleman - E - - - - - - -
- Jeroen Volker - E 17:15 30:00 1:02:25 1:36:50 1:44:35 2:19:00 4:53:05
- John Selder - D 18:00 31:25 1:05:15 1:41:10 1:49:20 2:25:15 5:06:20
- John van Zutphen - C 13:30 23:35 0:49:00 1:15:55 1:22:05 1:49:00 3:49:55
- Joop den Toom - E 16:10 28:10 0:58:35 1:30:50 1:38:05 2:10:20 4:34:55
- Judith Moerland - D - - - - - - -
- Jurrien van der Vecht - D 16:55 29:25 1:01:15 1:34:55 1:42:30 2:16:10 4:47:15
- Karin de Bruin - ? - - - - - - -
- Leo Klaasse - B 12:35 22:00 0:45:45 1:10:55 1:16:35 1:41:45 3:34:40
- Leona Koole - F - - - - - - -
- Leonie van Wort - E 15:40 27:20 0:56:45 1:28:00 1:35:05 2:06:15 4:26:20
- Lida Boere - E - - - - - - -
- Lieuwe Bleeker - E 15:55 27:50 0:57:45 1:29:35 1:36:45 2:08:35 4:31:10
- Linda Wenisch - G - - - - - - -
- Linda de Keijzer - G - - - - - - -
- Lisanne Bek - E - - - - - - -
- Loes Schwegman - G - - - - - - -
- M Service - B - - - - - - -
- Maarten Bovenlander - B 13:00 22:40 0:47:10 1:13:05 1:18:55 1:44:50 3:41:10
- Manuela Stoop - E - - - - - - -
- Marije Dijkgraaf - B 14:20 25:00 0:52:05 1:20:40 1:27:10 1:55:50 4:04:20
- Marijke Goedendorp - O - - - - - - -
- Marijke Kerpel - C 14:35 25:20 0:52:40 1:21:40 1:28:15 1:57:15 4:07:20
- Marja van Mastrigt - E - - - - - - -
- Marjolein Landman - E - - - - - - -
- Marjolein van Bommel - D - - - - - - -
- Mark de Wit - C - - - - - - -
- Martijn Lub - C - - - - - - -
- Maryse van Velzen - E - - - - - - -
- Michel Bouwens - B - - - - - - -
- Michiel Landman - E - - - - - - -
- Mirjam Nieman - E - - - - - - -
- Monica Huizer - D - - - - - - -
- Monique Goudappel - O - - - - - - -
- Patrick Kap - D - - - - - - -
- Paul Disser - C 13:40 23:50 0:49:30 1:16:40 1:22:50 1:50:05 3:52:10
- Paulien Schoelitsz - E - - - - - - -
- Perry Lankhorst - D - - - - - - -
- Remco van der Roest - B 13:15 23:05 0:48:00 1:14:25 1:20:25 1:46:50 3:45:20
- Riet van Leeuwen - C - - - - - - -
- Rob Koning - C - - - - - - -
- Rodney O'Driscoll - C - - - - - - -
- Roland Westerduin - E - - - - - - -
- Ronald Schipper - E - - - - - - -
- Ruud Meurs - B - - - - - - -
- Samantha Appel - E - - - - - - -
- Sander van Dongen - B 13:15 23:05 0:48:00 1:14:20 1:20:20 1:46:45 3:45:10
- Sandra Helbers - B 14:30 25:20 0:52:35 1:21:30 1:28:05 1:57:05 4:06:55
- Sandy van den Ban - F 19:50 34:35 1:11:50 1:51:25 2:00:25 2:39:55 5:37:15
- Sannie van de Reijden - G - - - - - - -
- Sebastiaan de Kluijver - E 16:25 28:35 0:59:30 1:32:10 1:39:35 2:12:20 4:39:05
- Stefan Elling - B 12:25 21:40 0:45:05 1:09:50 1:15:30 1:40:20 3:31:35
- Stephanie Meijer - D 15:55 27:50 0:57:50 1:29:35 1:36:50 2:08:40 4:31:20
- Sylvia van Aalst - F 20:35 35:55 1:14:40 1:55:45 2:05:05 2:46:05 5:50:25
- Ton van Dam - G 19:25 33:55 1:10:25 1:49:10 1:58:00 2:36:45 5:30:35
- Wendy de Jong - O - - - - - - -
- Wessel van Leeuwen - D - - - - - - -

Halve van Oostvoorne - 14-03-2015

 TijdPuntenBonus
Ab Snoeij 1:17:54 34 10
Alwin van der Elburg 1:40:35 16 -
Anneke Epker 55:32 4 -
Annemarie Bakker 1:03:02 1 -
Cock Dorst 1:20:38 30 10
Cok Dijkgraaf 50:25 7 -
Cok van Bodegom 1:45:54 10 10
Eric Zinnemers 1:45:38 12 10
Erwin Poldervaart 1:13:43 38 10
Esther Bloks 55:25 5 -
Ferry Engel 1:24:27 28 -
Ferry Kros 1:41:20 15 10
Hans Berendsen 1:15:56 37 10
Hans van Bommel. 1:31:24 24 -
Inge Kasius 1:54:35 4 10
Iskander van der Wijngaard 1:17:15 35 10
Jan Kweekel 1:36:53 17 10
Jan Wegereef 1:44:06 13 10
Joek Sloots 1:49:27 6 10
Jolanda Troost 38:17 8 -
Jolanda den Boer 57:22 3 -
Joop Helbers 1:15:59 36 10
Leo van Zielst 1:42:59 14 10
Maarten Krijnen 1:21:55 29 10
Marjan de Waaij 1:33:59 22 10
Michiel Stijntjes 1:35:31 19 10
Miriam Oomen 1:46:51 9 10
Monique Baars 1:48:21 7 10
Nel van der Knaap 52:42 6 -
Nicolette Mager 57:24 2 -
Niels van den Boogert 1:35:15 20 -
Paul van der Leij 1:50:53 5 10
Paula Groot 1:48:12 8 10
Ramon van der Knaap 1:27:16 27 10
Raymond Wissink 1:54:48 3 -
Richard Goedendorp 1:36:08 18 10
Richard Granneman 1:45:40 11 -
Richard van Waardenburg 1:18:45 31 10
Ron Moerland 1:31:12 25 10
Ruud de Grood 1:56:09 1 -
Sander Klink 1:34:30 21 -
Sander Peters 1:29:15 26 -
Tjerk Hazeveld 1:55:54 2 10
Victor Phaff 1:18:43 32 10
Walter Lodder 1:31:26 23 10
Wim Padmos 1:18:27 33 10

CPC loop - 08-03-2015

 TijdPuntenBonus
Carola Gevaert 2:05:48 8 10
Charles Creutzburg 2:04:17 9 -
Daniella Donders 2:06:46 6 10
Elaine Gevaert 1:53:37 18 10
Erik de Winkel 1:45:25 20 10
Erwin Pelger 2:08:45 1 -
Ferry Becker 2:00:16 11 -
Frans Westerveld 1:56:47 15 10
Fred Neubauer 1:58:40 13 10
Jacky Bareman 2:02:38 10 -
Jacqueline Nodelijk 2:07:10 3 -
Kees Noordhoek 1:58:34 14 10
Leo van Zielst 1:43:39 21 10
Marc van Bergen 2:07:06 4 -
Marcel Bewier 1:54:55 17 10
Marvin Verroen 1:47:18 19 -
Natasja de Winkel 30:57 1 -
Nathalie van Dalsen 2:08:10 2 10
Richard van Waardenburg 1:21:47 22 10
Silvia Vendeloo 57:41 1 10
Sylvia Schinkel 2:06:46 6 10
Vincent Bloem 36:44 2 -
Willem Spoorendonk 1:59:49 12 10

3km Testloop - 03-03-2015

 TijdPuntenBonus
Anita Langendoen 18:52 18 -
Anita Schilperoord 21:57 5 -
Annemarie Bakker 19:11 16 -
Bas Pronk 21:30 8 -
Ben van der Vlugt 12:40 37 -
Daniella Stremme 19:59 13 -
Diana Willemsen 16:16 22 -
Elza Broecks 23:18 3 -
Eric Zinnemers 14:33 26 -
Esther Bloks 17:54 21 10
Ferry Kros 12:56 34 10
Fred Neubauer 15:40 25 -
Hanneke Dumont 21:18 9 10
Heidi Wagner 18:11 20 10
Irene Sjouw 23:18 3 10
Jan Kweekel 12:44 36 -
Jolanda den Boer 21:34 7 -
Jos Mastenbroek 11:51 40 10
Leo van Zielst 13:23 32 -
Michelle Knegt 23:01 4 -
Michiel Stijntjes 11:56 38 10
Miriam Oomen 13:33 28 10
Monique Baars 13:46 27 10
Nabil Allal el Bakhti 13:26 31 -
Natasja Herman 21:00 11 10
Nathalie van der Pluym 21:00 11 -
Nicolette Mager 18:50 19 10
Niels Vernes 11:32 41 10
Paula Groot 13:31 29 10
Peter Duijvestijn 19:50 14 -
Peter Schinkel 12:52 35 10
Ralph van de Grijp 13:14 33 -
Richard Granneman 13:26 31 -
Rien Roskam 16:12 23 10
Ron Moerland 11:25 42 10
Sander Klink 11:51 40 -
Silvia Vendeloo 19:11 16 -
Simone van Bodegom 20:00 12 10
Tjerk Hazeveld 18:53 17 -
Ton van Almen 15:50 24 -
Willeke Lageweg 23:23 1 -

Brielle - 08-02-2015

 TijdPuntenBonus
Ab Snoeij 59:04 19 10
Cock Dorst 1:00:37 15 10
Cok van Bodegom 1:21:04 5 10
Eric van Es 1:11:59 10 10
Erwin Poldervaart 58:06 21 -
Hans Berendsen 58:14 20 10
Inge Kasius 1:29:17 2 10
Iskander van der Wijngaard 59:40 17 10
Jacky Bareman 1:34:34 1 -
Jan Kweekel 1:13:07 9 -
Joek Sloots 1:20:49 6 10
Leo van Zielst 1:20:27 7 -
Louis de Koning 1:00:32 16 10
Maarten Krijnen 1:01:25 13 10
Nicolette Mager 33:01 1 10
Niels Vernes 19:55 3 10
Paul van der Leij 1:19:10 8 10
Paula Groot 1:21:16 3 10
Richard Goedendorp 1:11:23 11 10
Richard Granneman 1:21:13 4 -
Richard van Waardenburg 1:01:17 14 10
Ron Moerland 20:12 2 10
Sander Klink 1:07:55 12 10
Sander Peters 59:24 18 10
Vincent Bloem 17:26 4 10

3km Testloop - 03-02-2015

 TijdPuntenBonus
Anita Langendoen 18:25 15 -
Anita Schilperoord 21:08 7 10
Ben van der Vlugt 12:30 39 10
Cerise Metaal 22:58 5 -
Charissa van der Knaap 16:20 18 10
Cok van Bodegom 13:55 26 -
Debra Brouwn 19:43 13 -
Diana Willemsen 15:37 20 -
Elza Broecks 23:32 3 -
Eric van Es 12:32 38 -
Erik de Winkel 13:18 33 10
Ferry Kros 12:45 36 10
Fred de Zeeuw 13:30 30 10
Hans Lazet 20:57 8 -
Hans van Bommel 11:26 41 10
Heidi Wagner 19:43 13 -
Inge Kasius 14:03 25 10
Irene Sjouw 23:32 3 -
Jack van Tilburg 16:31 16 10
Jan Wegereef 13:43 28 -
Jason Duijvenvoorde 12:48 35 10
Jeroen Duizendstra 12:32 38 10
Joek Sloots 14:35 23 -
Jolanda den Boer 21:08 7 -
Jos Mastenbroek 12:48 35 -
Leo van Zielst 13:26 31 -
Marinda Lub 14:25 24 10
Miriam Oomen 13:30 30 10
Monique Baars 13:54 27 10
Nabil Allal el Bakhti 13:21 32 -
Natasja Herman 20:31 10 10
Nathalie van der Pluym 20:37 9 -
Nicolette Mager 19:10 14 10
Peter Duijvestijn 19:45 11 -
Ramon van der Knaap 11:09 43 10
Richard Goedendorp 11:55 40 10
Rien Roskam 16:10 19 10
Sander Klink 11:20 42 10
Silvia Vendeloo 16:23 17 10
Theo van Dis 15:15 21 -
Tjerk Hazeveld 14:37 22 10
Willeke Lageweg 23:32 3 -
Yvonne Hartensveld 23:05 4 10

Kruininger Gorscross - 25-01-2015

 TijdPuntenBonus
Cock Dorst 53:57 3 -
Galina Mamaewa 53:27 1 -
Marjan de Waaij 1:06:46 1 -
Melvin Kruik 18:39 2 -
Mieke van den Bos 25:23 1 -
Ramon van der Knaap 59:16 2 -
Remko Kap 49:22 5 -
Wim Padmos 52:20 4 -

Halve van Maassluis - 18-01-2015

 TijdPuntenBonus
Ab Snoeij 1:18:52 16 10
Alex Vogelezang 1:56:51 4 -
Bertus Noordzij 1:57:47 2 10
Cok van Bodegom 1:46:04 7 10
Danny van Wijk 1:23:40 12 -
Diana Willemsen 1:57:07 3 -
Ferry Engel 1:20:16 14 10
Henk van Leeuwen 15:04 2 10
Iskander van der Wijngaard 1:17:44 17 10
Joek Sloots 1:48:52 6 10
Joop Helbers 1:19:06 15 10
Leo van Zielst 1:52:22 5 -
Marjan de Waaij 1:36:40 8 10
Melvin Kruik 17:59 1 -
Niels Vernes 1:33:25 9 10
Richard van Waardenburg 1:20:41 13 10
Ruud de Vette 1:23:41 11 10
Tjerk Hazeveld 1:58:54 1 10
Ton van Almen 54:35 1 10
Victor Phaff 1:15:06 18 10
Vincent Bloem 36:08 2 10
Wim Padmos 1:28:46 10 -

3km Testloop - 06-01-2015

 TijdPuntenBonus
Aad ? 21:12 3 -
Aad van Driel 16:43 14 -
Alco Weeke 15:31 19 -
Anita Langendoen 19:08 7 -
Ben van der Vlugt 13:10 34 -
Claudia Liebke 19:15 6 10
Eric van Es 12:46 40 -
Erik de Winkel 12:45 41 10
Eva Hoogendoorn 12:52 37 -
Franka Boekelman 22:16 1 10
Frans Westerveld 12:58 36 10
Fred Neubauer 15:12 21 10
Fred de Zeeuw 14:11 28 -
Galina Mamaewa 18:35 9 -
Hanneke Dumont 21:37 2 10
Hans van Bommel 11:44 45 10
Heleen Koelewijn 18:02 10 10
Inge Kasius 14:20 26 10
Jason Duijvenvoorde 14:06 30 -
Jeroen Duizendstra 14:15 27 -
Joek Sloots 14:50 22 -
John Lavooij 13:06 35 -
Jos Mastenbroek 12:32 43 10
Leo Turkenburg 19:02 8 -
Leo van Zielst 12:47 39 10
Maarten Jongeneel 16:52 11 10
Marcel Bewier 14:07 29 10
Marja Willekes 16:45 13 -
Monique Baars 14:02 31 10
Niels Vernes 11:26 49 10
Peter Blok 13:42 32 10
Peter Schinkel 12:51 38 10
Ramon van der Knaap 11:36 47 10
Richard Goedendorp 14:22 25 -
Richard Granneman 13:27 33 -
Rien Roskam 16:10 15 10
Rob Leijn 15:49 18 -
Ron Moerland 11:56 44 10
Ruud de Grood 14:31 24 -
Sander Klink 11:38 46 10
Sandra Kweekel 16:45 13 10
Silvia Turkenburg 19:31 5 -
Silvia Vendeloo 16:03 16 10
Sylvia Hogerheijde 20:20 4 -
Theo van Dis 15:30 20 -
Thijs Walstra 12:34 42 10
Tjerk Hazeveld 14:31 24 10
Ton van Almen 15:49 18 -
Walter Lodder 11:27 48 10

Halve van Westvoorne - 04-01-2015

 TijdPuntenBonus
Alwin van der Elburg 50:45 4 -
Ben van der Vlugt 1:46:45 23 -
Carola Gevaert 2:07:53 6 10
Diana Willemsen 2:07:41 8 -
Elaine Gevaert 1:55:58 13 -
Erik de Winkel 1:51:02 21 -
Ferry Kros 1:52:45 18 -
Frans Westerveld 1:52:58 17 10
Fred Neubauer 2:07:47 7 -
Fred de Zeeuw 1:53:14 16 -
Gail Tsang 1:02:39 2 10
Galina Mamaewa 2:14:01 2 -
Gerard van Haastert 1:59:07 9 -
Hans Berendsen 1:20:56 34 -
Hans van Bommel. 1:37:32 27 -
Inge Kasius 2:12:48 3 -
Jan Wegereef 1:43:10 25 10
Jason Duijvenvoorde 1:54:03 15 -
Joek Sloots 1:57:32 11 -
Marc van Bergen 2:22:14 1 -
Marcel Bewier 1:58:03 10 10
Marcel van Rumpt 47:25 5 -
Marjan de Waaij 1:42:34 26 -
Miriam Oomen 1:55:58 13 10
Paula Groot 1:51:13 19 -
Peter Schinkel 1:48:13 22 -
Ramon van der Knaap 1:44:18 24 -
Raymond Wissink 1:55:48 14 -
Remko Kap 1:33:43 30 -
Richard Granneman 1:51:06 20 -
Richard van Waardenburg 1:24:33 32 -
Sander Klink 1:36:12 29 -
Sander Peters 1:24:01 33 -
Sylvia Schinkel 1:02:39 2 -
Tjerk Hazeveld 2:09:11 4 -
Ton van Almen 55:02 3 -
Walter Lodder 1:36:49 28 -
Willem Spoorendonk 2:08:12 5 -
Wim Padmos 1:25:53 31 -

Middelharnis Pallandtloop - 20-12-2014

 TijdPuntenBonus
Ab Snoeij 1:00:34 15 10
Cock Dorst 1:01:56 10 10
Cok van Bodegom 1:21:12 3 10
Ferry Engel 1:00:40 14 10
Hans Berendsen 59:18 16 10
Inge Kasius 1:30:15 1 10
Iskander van der Wijngaard 59:11 17 10
Joek Sloots 1:21:42 2 10
Joop Helbers 1:01:26 12 10
Leo van Zielst 1:15:33 5 10
Maarten Krijnen 1:01:49 11 10
Marcel van Rumpt 36:27 2 -
Marjan de Waaij 1:13:38 6 -
Melvin Kruik 31:02 5 -
Nicolette Mager 57:01 1 -
Niels Vernes 33:37 4 -
Paula Groot 1:17:54 4 10
Ramon van der Knaap 1:07:07 7 10
Richard van Waardenburg 1:02:10 9 10
Ron Moerland 34:27 3 -
Sander Klink 1:07:04 8 10
Sander Peters 1:00:43 13 10

SPARK Marathon - 14-12-2014

 TijdPuntenBonus
Bianca Pothof 57:19 1 10
Charles Creutzburg 2:03:36 2 10
Erik de Winkel 1:52:12 7 -
Frans Westerveld 1:50:52 8 10
Fred Neubauer 2:07:47 1 -
Jacky Bareman 2:02:47 3 -
Jan Kweekel 3:19:49 1 10
Joek Sloots 1:48:46 9 10
Leo van Zielst 1:43:22 11 10
Marcel Fiering 35:44 5 10
Marcel Gelton 38:38 3 10
Michiel Stijntjes 1:37:40 13 10
Miriam Oomen 1:48:22 10 10
Monique Baars 1:52:12 7 10
Paul van der Leij 24:31 2 -
Ralph van de Grijp 41:11 2 10
Richard Granneman 1:41:26 12 10
Ruud de Grood 1:55:47 5 -
Sander Klink 28:48 1 -
Vincent Bloem 37:10 4 -

Bruggenloop - 07-12-2014

 TijdPuntenBonus
Daphne de Vette 1:37:05 4 -
Elaine Gevaert 1:19:26 19 10
Frans Westerveld 1:18:25 24 10
Fred Neubauer 1:24:54 15 10
Hans Berendsen 55:48 29 10
Inge Kasius 1:18:28 22 10
Iskander van der Wijngaard 56:01 28 10
Kees Noordhoek 1:32:30 6 -
Leo Turkenburg 1:36:15 5 -
Marc van Bergen 1:29:35 9 -
Marcel Bewier 1:21:52 17 10
Marcel Gelton 58:59 26 10
Marcel van Rumpt 1:19:08 20 -
Marco Baas 1:18:58 21 10
Mary Noordhoek 1:32:23 7 10
Petra Strik 1:25:38 14 -
Raymond Wissink 1:27:00 13 -
Richard Goedendorp 1:18:27 23 -
Richard van Waardenburg 57:52 27 10
Rini van de Westelaken 1:28:54 10 10
Sander Klink 1:04:12 25 10
Sander Peters 55:40 30 10
Silvia Turkenburg 1:40:49 3 10
Theo van Dis 1:24:01 16 -
Ton Roelofs 1:44:33 2 -
Wendy Maas 1:44:34 1 -
Willem Spoorendonk 1:27:30 12 -
Wobbe van der Linden 1:29:48 8 10

Voorne's Duin Trail - 07-12-2014

 TijdPuntenBonus
Cock Dorst 1:41:33 16 -
Dennis Postma 2:49:30 2 -
Ferry Kros 1:56:10 7 -
Fred de Zeeuw 2:02:47 2 -
Hans van Bommel 1:43:52 14 -
Jan Wegereef 1:56:38 5 -
John Lavooij 1:56:36 6 -
Joop Helbers 1:39:13 18 -
Jorgen Westbroek 2:02:59 1 -
Jos Noordegraaf 1:46:25 9 -
Leo van Zielst 1:55:38 8 -
Michiel Stijntjes 1:45:11 12 -
Miriam Oomen 2:02:38 4 -
Niels Vernes 1:45:10 13 -
Paula Groot 2:02:38 4 -
Ralph van de Grijp 1:42:38 15 -
Ramon van der Knaap 1:39:15 17 -
Richard Granneman 1:45:12 11 -
Ruud de Vette 3:06:12 1 -

3km Testloop - 02-12-2014

 TijdPuntenBonus
Anita Schilperoord 21:03 4 10
Esther Bloks 18:40 7 10
Franka Boekelman 22:03 3 10
Irene Sjouw 23:28 1 -
Jack van Tilburg 18:32 8 -
Marielle Grijzenhout 17:54 9 10
Michelle Knegt 22:54 2 10
Peter Duijvestijn 19:25 6 10
Richard Granneman 12:32 11 10
Silvia Vendeloo 16:16 10 10
Simone van Bodegom 19:50 5 10

Kruininger Gorscross - 30-11-2014

 TijdPuntenBonus
Ab Snoeij 51:45 7 -
Alwin van der Elburg 49:46 2 -
Cock Dorst 53:28 6 -
Dennis Postma 49:01 9 -
Diana Willemsen 25:38 3 -
Ellen van Leeuwen 1:15:56 1 -
Ferry Kros 44:43 4 -
Hans Berendsen 49:28 8 -
Leo Turkenburg 30:30 2 -
Maarten Krijnen 35:05 6 -
Melvin Kruik 18:19 4 -
Michiel Stijntjes 1:01:52 4 -
Miriam Oomen 46:13 3 -
Paula Groot 1:06:38 2 -
Raymond Wissink 50:00 1 -
Richard Granneman 1:03:12 3 -
Richard van Waardenburg 34:29 7 -
Ron Moerland 40:37 5 -
Ruud de Vette 53:45 5 -
Sander Peters 33:54 8 -
Silvia Turkenburg 32:27 1 -
Vincent Bloem 17:20 5 -

Zevenheuvelenloop - 16-11-2014

 TijdPuntenBonus
Bianca Pothof 1:31:05 5 -
Charles Creutzburg 1:26:48 8 -
Eric van Es 1:07:19 16 10
Fred Neubauer 1:28:39 6 -
Gail Tsang 1:32:15 3 10
Inge Kasius 1:20:16 12 10
Jan Kweekel 1:05:21 18 10
Marc van Bergen 1:32:17 2 -
Marcel Bewier 1:27:49 7 -
Miriam Oomen 1:15:03 15 10
Onno Teders 1:25:48 9 10
Raymond Wissink 1:18:01 13 10
Richard Goedendorp 1:04:29 19 10
Rob van der Elburg 1:16:57 14 10
Sander Klink 1:07:13 17 -
Sander Peters 56:00 20 10
Tjerk Hazeveld 1:23:47 11 10
Ton Roelofs 1:48:01 1 -
Wobbe van der Linden 1:31:49 4 10

Spijkenisse - 09-11-2014

 TijdPuntenBonus
Ab Snoeij 1:04:07 19 -
Anneke Epker 32:59 1 10
Annelies Vos 1:23:07 1 10
Cock Dorst 58:43 22 10
Cok van Bodegom 1:19:38 5 -
Dennis Postma 17:39 8 -
Eric van Es 1:08:04 13 10
Ferry Engel 56:22 26 10
Gert-Jan Goudappel 1:22:07 4 -
Hans Berendsen 55:30 28 10
Inge Kasius 1:22:33 3 10
Iskander van der Wijngaard 55:02 29 10
Jan Kweekel 1:06:12 16 10
Joek Sloots 1:16:20 6 10
Leo van Zielst 1:09:48 10 10
Maarten Krijnen 55:54 27 10
Marcel Gelton 1:01:02 21 10
Marjan de Waaij 1:08:27 12 -
Marleen Kweekel 32:55 2 10
Michiel Stijntjes 1:07:36 15 10
Monique Baars 24:52 4 -
Nicolette Mager 32:52 3 10
Niels Vernes 20:24 6 10
Paul van der Leij 1:13:39 9 10
Paula Groot 1:14:30 8 10
Petra Strik 52:35 2 10
Ramon van der Knaap 1:02:10 20 10
Remko Kap 56:36 25 10
Richard Goedendorp 1:05:50 17 10
Richard Granneman 1:07:56 14 10
Richard van Waardenburg 57:18 23 10
Robert van Lenten 24:04 5 -
Ron Moerland 20:07 7 10
Sander Klink 1:04:42 18 10
Sander Peters 56:39 24 10
Silvia Vendeloo 58:40 1 10
Thijs Walstra 1:14:32 7 -
Vincent Bloem 17:37 9 -
Willem Spoorendonk 1:22:39 2 10
Wim Padmos 1:08:28 11 -

3km Testloop - 04-11-2014

 TijdPuntenBonus
Aad van Driel 16:23 30 -
Alco Weeke 16:12 32 -
Alex Vogelezang 13:59 51 10
Anita Schilperoord 21:52 6 -
Ben van der Vlugt 12:16 62 10
Berry de Gelder 15:41 34 -
Bertus Noordzij 14:01 50 10
Bianca Pothof 17:05 26 -
Carola Gevaert 16:29 29 -
Cerise Metaal 22:32 4 -
Daniella Stremme 20:50 9 -
Denise 't Hardt 19:30 12 -
Diana Willemsen 14:25 43 -
Elaine Gevaert 14:10 47 10
Eric Zinnemers 14:03 48 -
Eric van Es 12:04 64 10
Esther Bloks 17:40 20 10
Ferry Kros 12:45 58 10
Frans Westerveld 13:58 53 10
Fred de Zeeuw 13:26 54 10
Heidi Wagner 19:18 14 10
Inge Kasius 14:02 49 10
Jack van Tilburg 17:35 21 -
Jacky Bareman 14:52 36 10
Joek Sloots 14:19 45 -
Johan Engel 13:14 55 -
John Lavooij 12:48 56 10
Joop Hartog 17:40 20 -
Joris Straver 14:32 42 -
Jos Mastenbroek 12:25 61 10
Leo Turkenburg 17:52 18 -
Leo van Zielst 12:45 58 10
Leo van der Linden 14:40 41 -
Lizette van Dam 19:11 15 10
Maarten Jongeneel 16:49 27 10
Marcel Bewier 14:22 44 10
Marcel Straver 14:15 46 -
Marian van Dijk 17:08 23 -
Marielle Grijzenhout 18:15 17 10
Merel Boerstra 18:41 16 -
Michelle Knegt 22:52 2 10
Michiel Stijntjes 12:13 63 10
Monica van der Heuvel 17:07 24 -
Nancy Berkelaar 15:53 33 10
Natasja Herman 22:10 5 -
Nathalie van Dalsen 16:13 31 10
Nicolette Mager 19:32 11 10
Onno Teders 14:40 41 10
Peter Duijvestijn 19:21 13 10
Petra Strik 14:49 37 -
Ramon van der Knaap 11:01 69 10
Remco Palm 12:02 65 10
Richard Goedendorp 11:46 67 10
Richard Granneman 12:28 60 10
Rien Roskam 16:45 28 -
Ron Moerland 12:01 66 10
Rui Soares Aguiar 12:36 59 10
Ruud de Grood 14:43 39 -
Sabine van der Vecht 23:02 1 -
Sander Klink 11:45 68 -
Sandra Kweekel 17:05 26 10
Silvia Turkenburg 17:22 22 10
Simone van Bodegom 20:50 9 -
Theo van Dis 14:47 38 -
Ton van Almen 15:25 35 -
Vivianne Kleijn 19:34 10 -
Wil Loopik 20:53 7 -
Yvonne Hartensveld 22:50 3 10

Berenloop Terschelling - 02-11-2014

 TijdPuntenBonus
Diana Willemsen 1:59:46 2 -
Galina Mamaewa 2:11:33 1 -
Jacques Slingerland 1:59:45 3 -
Remko Kap 2:53:08 1 10

Etten-Leur - 26-10-2014

 TijdPuntenBonus
Onno Teders 54:39 1 10
Paula Groot 1:56:41 1 -
Richard Granneman 3:51:33 1 -
Ron Moerland 3:39:48 2 10
Ruud de Grood 1:51:42 2 10
Sander Peters 36:52 2 10

Nasty Night Trail - 25-10-2014

 TijdPuntenBonus
Ben van der Vlugt 1:15:42 7 -
Cock Dorst 1:00:44 18 -
Dennis Postma 55:08 22 -
Eric van Es 1:08:15 16 -
Ferry Kros 1:15:08 8 -
Fred de Zeeuw 1:17:42 6 -
Iskander van der Wijngaard 57:09 20 -
Jacky Bareman 1:32:12 2 -
John Lavooij 1:13:01 10 -
Leo van Zielst 1:19:31 4 -
Marcel Gelton 1:00:43 19 -
Michiel Stijntjes 1:08:44 14 -
Miriam Oomen 1:19:30 5 -
Niels Vernes 1:08:42 15 -
Petra Strik 1:37:10 1 -
Ralph van de Grijp 1:08:58 13 -
Raymond Wissink 1:23:59 3 -
Remco Palm 1:09:37 11 -
Remko Kap 55:40 21 -
Rob van der Elburg 1:15:07 9 -
Ruud de Vette 1:01:08 17 -
Sander Klink 1:09:10 12 -

Amsterdam marathon - 19-10-2014

 TijdPuntenBonus
Erik de Winkel 5:18:36 1 -
Ferry Engel 2:57:15 3 -
Ruud de Grood 1:55:57 1 -
Ruud de Vette 3:00:27 2 10

Vopakloop Hellevoetsluis - 12-10-2014

 TijdPuntenBonus
Ab Snoeij 35:49 53 10
Alex Vogelezang 57:17 4 -
Anneke Epker 33:37 2 10
Annelies Vos 53:26 13 10
Annemarie Bakker 34:00 1 -
Ben van der Vlugt 44:55 30 10
Bertus Noordzij 56:29 6 -
Bianca Pothof 55:45 9 10
Brenda Heuvelman 31:47 8 -
Charissa van der Knaap 31:49 7 -
Charles Timmermans 40:22 36 -
Cock Dorst 37:24 47 10
Cok van Bodegom 49:03 23 10
Dennis Postma 38:18 44 -
Diana Willemsen 25:38 13 -
Elise van Dis 55:19 10 10
Eric Zinnemers 50:10 19 -
Erik de Winkel 50:01 21 -
Erwin Pelger 52:05 16 10
Ferry Engel 36:44 49 -
Gerard van Haastert 53:24 14 -
Gert-Jan Goudappel 39:34 40 10
Hans Berendsen 36:26 50 -
Inge Kasius 55:02 11 -
Iskander van der Wijngaard 36:21 51 10
Jacky Bareman 52:43 15 10
Jacqueline Nodelijk 55:47 8 10
Joek Sloots 49:48 22 10
Johan Engel 23:35 17 -
John Hemmerlé 38:33 43 10
John Lavooij 23:41 16 -
Jos Geraets 27:15 12 10
Leo van Zielst 45:31 28 10
Louis de Koning 38:39 42 -
Maarten Krijnen 36:57 48 10
Marc van Bergen 56:23 7 -
Marcel Bewier 25:15 14 10
Marcel Gelton 38:52 41 10
Marielle Grijzenhout 31:52 6 10
Marjan de Waaij 42:45 32 10
Marleen Kweekel 33:30 3 10
Miriam Oomen 50:43 18 10
Monique Baars 50:08 20 10
Nancy Berkelaar 27:24 11 10
Nathalie van Dalsen 57:15 5 10
Nel van der Knaap 31:16 9 -
Nicolette Mager 33:11 5 10
Niels Vernes 20:32 18 10
Niels van den Boogert 41:49 35 10
Paul van der Leij 47:01 27 10
Paula Groot 47:33 24 10
Peter Blok 47:30 25 10
Peter van Meel 58:59 2 -
Ramon van der Knaap 39:55 37 10
Remko Kap 36:03 52 10
Richard Goedendorp 42:15 33 10
Richard Granneman 45:09 29 10
Richard van Waardenburg 37:44 46 10
Rob van der Elburg 47:07 26 10
Robert van Lenten 39:37 39 10
Ron Moerland 20:16 19 10
Ruud de Vette 38:16 45 10
Sander Klink 42:10 34 10
Silvia Vendeloo 58:24 3 10
Sylvia Hogerheijde 1:06:36 1 -
Theo van Dis 51:32 17 10
Thijs Walstra 44:09 31 10
Thomas White 39:46 38 -
Wil Loopik 33:28 4 10
Willem Spoorendonk 54:56 12 10
Wim Padmos 35:46 54 10

3km Testloop - 07-10-2014

 TijdPuntenBonus
Charissa van der Knaap 18:30 6 -
Hans Lazet 18:28 8 10
Heleen Machielse 22:45 3 -
Jos Geraets 16:10 9 10
Leen van der Wiel 22:57 2 10
Marielle Grijzenhout 18:28 8 10
Mark Jooren 15:15 12 -
Marleen Kweekel 19:34 4 10
Nancy Berkelaar 16:09 10 10
Rini van de Westelaken 18:34 5 10
Ronald Claessen 14:10 13 -
Silvia Vendeloo 16:07 11 10
Yvonne Hartensveld 22:57 2 10

Dam tot Damloop - 21-09-2014

 TijdPuntenBonus
Arnold Mastenbroek 1:42:51 2 -
Ferry Kros 1:23:15 5 -
John Hemmerlé 1:06:13 8 -
Kees Noordhoek 1:35:32 3 -
Leo van Zielst 1:21:56 6 -
Peter van Meel 1:44:49 1 -
Tjerk Hazeveld 1:31:48 4 10

Burgh-Haamstede, Trail by the Sea - 21-09-2014

 TijdPuntenBonus
Diana Willemsen 2:51:08 1 -
Fred de Zeeuw 2:05:20 6 -
Galina Mamaewa 2:43:42 3 -
Hans van Bommel 1:51:55 11 -
Jan Wegereef 1:56:25 10 -
Michiel Stijntjes 1:56:35 9 -
Paula Groot 2:13:48 4 -
Peter Schinkel 2:07:42 5 -
Ralph van de Grijp 2:02:21 7 -
Remko Kap 2:43:44 2 -
Richard Granneman 2:01:00 8 -

Sommelsdijk VBC - 20-09-2014

 TijdPuntenBonus
Ab Snoeij 35:58 24 10
Anneke Epker 36:27 2 -
Cok van Bodegom 50:17 5 -
Eric van Es 46:43 9 -
Erwin Pelger 53:01 3 10
Ferry Engel 37:17 21 -
Ferry Kros 49:08 6 10
Inge Kasius 53:53 2 10
Iskander van der Wijngaard 36:06 23 10
Jan Kweekel 43:43 13 -
Joek Sloots 50:36 4 -
Jos Geraets 29:37 3 10
Leo van Zielst 48:14 8 -
Maarten Krijnen 37:31 20 -
Marcel van Rumpt 23:06 4 -
Marjan de Waaij 43:48 12 10
Nicolette Mager 36:29 1 -
Niels Vernes 22:27 5 -
Onno Teders 1:00:03 1 -
Paul van der Leij 48:51 7 10
Ramon van der Knaap 41:31 16 10
Richard Goedendorp 42:26 15 10
Richard Granneman 45:52 11 10
Richard van Waardenburg 38:24 17 -
Ron Moerland 22:19 6 10
Ruud de Vette 38:19 18 10
Sander Klink 42:34 14 -
Sander Peters 38:07 19 -
Thijs Walstra 46:03 10 10
Wim Padmos 37:16 22 -

Den Haag, Vredesloop - 20-09-2014

 TijdPuntenBonus
Frans Westerveld 58:54 2 -
Fred Neubauer 58:21 3 -
Marcel Bewier 55:31 4 -
Nancy Berkelaar 1:02:01 1 -
Raymond Wissink 54:13 5 -
Rob van der Elburg 52:07 6 10
Walter Lodder 42:36 7 -

Spijkenisse Baancircuit (baan) - 11-09-2014

 TijdPuntenBonus
Ab Snoeij 17:34 20 10
Charles Timmermans 18:37 15 -
Cock Dorst 17:11 22 10
Dennis Postma 17:11 22 -
Diana Willemsen 25:15 3 -
Gert-Jan Goudappel 19:01 12 10
Inge Kasius 24:39 5 10
Iskander van der Wijngaard 17:39 19 10
Joek Sloots 24:54 4 -
John Hemmerlé 18:41 13 10
Jolanda Troost 19:14 11 10
Leo van Zielst 23:26 6 -
Marcel Fiering 18:13 17 10
Marcel Gelton 18:13 17 10
Onno Teders 25:19 2 10
Petra Strik 25:23 1 10
Richard Goedendorp 20:02 10 10
Ron Moerland 20:36 8 10
Ruud de Vette 18:38 14 10
Sander Klink 20:08 9 10
Sander Peters 18:12 18 -
Thijs Walstra 21:00 7 10
Victor Phaff 16:43 23 10

Aad ?

 TijdPuntenBonus
3km Testloop - 06-01-2015 21:12 3 -

Aad van Driel

 TijdPuntenBonus
3km Testloop - 04-11-2014 16:23 30 -
3km Testloop - 06-01-2015 16:43 14 -

Ab Snoeij

 TijdPuntenBonus
Spijkenisse Baancircuit (baan) - 11-09-2014 17:34 20 10
Sommelsdijk VBC - 20-09-2014 35:58 24 10
Vopakloop Hellevoetsluis - 12-10-2014 35:49 53 10
Spijkenisse - 09-11-2014 1:04:07 19 -
Kruininger Gorscross - 30-11-2014 51:45 7 -
Middelharnis Pallandtloop - 20-12-2014 1:00:34 15 10
Halve van Maassluis - 18-01-2015 1:18:52 16 10
Brielle - 08-02-2015 59:04 19 10
Halve van Oostvoorne - 14-03-2015 1:17:54 34 10

Alco Weeke

 TijdPuntenBonus
3km Testloop - 04-11-2014 16:12 32 -
3km Testloop - 06-01-2015 15:31 19 -

Alex Vogelezang

 TijdPuntenBonus
Vopakloop Hellevoetsluis - 12-10-2014 57:17 4 -
3km Testloop - 04-11-2014 13:59 51 10
Halve van Maassluis - 18-01-2015 1:56:51 4 -

Alwin van der Elburg

 TijdPuntenBonus
Kruininger Gorscross - 30-11-2014 49:46 2 -
Halve van Westvoorne - 04-01-2015 50:45 4 -
Halve van Oostvoorne - 14-03-2015 1:40:35 16 -

Anita Langendoen

 TijdPuntenBonus
3km Testloop - 06-01-2015 19:08 7 -
3km Testloop - 03-02-2015 18:25 15 -
3km Testloop - 03-03-2015 18:52 18 -

Anita Schilperoord

 TijdPuntenBonus
3km Testloop - 04-11-2014 21:52 6 -
3km Testloop - 02-12-2014 21:03 4 10
3km Testloop - 03-02-2015 21:08 7 10
3km Testloop - 03-03-2015 21:57 5 -

Anneke Epker

 TijdPuntenBonus
Sommelsdijk VBC - 20-09-2014 36:27 2 -
Vopakloop Hellevoetsluis - 12-10-2014 33:37 2 10
Spijkenisse - 09-11-2014 32:59 1 10
Halve van Oostvoorne - 14-03-2015 55:32 4 -

Annelies Vos

 TijdPuntenBonus
Vopakloop Hellevoetsluis - 12-10-2014 53:26 13 10
Spijkenisse - 09-11-2014 1:23:07 1 10

Annemarie Bakker

 TijdPuntenBonus
Vopakloop Hellevoetsluis - 12-10-2014 34:00 1 -
3km Testloop - 03-03-2015 19:11 16 -
Halve van Oostvoorne - 14-03-2015 1:03:02 1 -

Arnold Mastenbroek

 TijdPuntenBonus
Dam tot Damloop - 21-09-2014 1:42:51 2 -

Bas Pronk

 TijdPuntenBonus
3km Testloop - 03-03-2015 21:30 8 -

Ben van der Vlugt

 TijdPuntenBonus
Vopakloop Hellevoetsluis - 12-10-2014 44:55 30 10
Nasty Night Trail - 25-10-2014 1:15:42 7 -
3km Testloop - 04-11-2014 12:16 62 10
Halve van Westvoorne - 04-01-2015 1:46:45 23 -
3km Testloop - 06-01-2015 13:10 34 -
3km Testloop - 03-02-2015 12:30 39 10
3km Testloop - 03-03-2015 12:40 37 -

Berry de Gelder

 TijdPuntenBonus
3km Testloop - 04-11-2014 15:41 34 -

Bertus Noordzij

 TijdPuntenBonus
Vopakloop Hellevoetsluis - 12-10-2014 56:29 6 -
3km Testloop - 04-11-2014 14:01 50 10
Halve van Maassluis - 18-01-2015 1:57:47 2 10

Bianca Pothof

 TijdPuntenBonus
Vopakloop Hellevoetsluis - 12-10-2014 55:45 9 10
3km Testloop - 04-11-2014 17:05 26 -
Zevenheuvelenloop - 16-11-2014 1:31:05 5 -
SPARK Marathon - 14-12-2014 57:19 1 10

Brenda Heuvelman

 TijdPuntenBonus
Vopakloop Hellevoetsluis - 12-10-2014 31:47 8 -

Carola Gevaert

 TijdPuntenBonus
3km Testloop - 04-11-2014 16:29 29 -
Halve van Westvoorne - 04-01-2015 2:07:53 6 10
CPC loop - 08-03-2015 2:05:48 8 10

Cerise Metaal

 TijdPuntenBonus
3km Testloop - 04-11-2014 22:32 4 -
3km Testloop - 03-02-2015 22:58 5 -

Charissa van der Knaap

 TijdPuntenBonus
3km Testloop - 07-10-2014 18:30 6 -
Vopakloop Hellevoetsluis - 12-10-2014 31:49 7 -
3km Testloop - 03-02-2015 16:20 18 10

Charles Creutzburg

 TijdPuntenBonus
Zevenheuvelenloop - 16-11-2014 1:26:48 8 -
SPARK Marathon - 14-12-2014 2:03:36 2 10
CPC loop - 08-03-2015 2:04:17 9 -

Charles Timmermans

 TijdPuntenBonus
Spijkenisse Baancircuit (baan) - 11-09-2014 18:37 15 -
Vopakloop Hellevoetsluis - 12-10-2014 40:22 36 -

Claudia Liebke

 TijdPuntenBonus
3km Testloop - 06-01-2015 19:15 6 10

Cock Dorst

 TijdPuntenBonus
Spijkenisse Baancircuit (baan) - 11-09-2014 17:11 22 10
Vopakloop Hellevoetsluis - 12-10-2014 37:24 47 10
Nasty Night Trail - 25-10-2014 1:00:44 18 -
Spijkenisse - 09-11-2014 58:43 22 10
Kruininger Gorscross - 30-11-2014 53:28 6 -
Voorne's Duin Trail - 07-12-2014 1:41:33 16 -
Middelharnis Pallandtloop - 20-12-2014 1:01:56 10 10
Kruininger Gorscross - 25-01-2015 53:57 3 -
Brielle - 08-02-2015 1:00:37 15 10
Halve van Oostvoorne - 14-03-2015 1:20:38 30 10

Cok Dijkgraaf

 TijdPuntenBonus
Halve van Oostvoorne - 14-03-2015 50:25 7 -

Cok van Bodegom

 TijdPuntenBonus
Sommelsdijk VBC - 20-09-2014 50:17 5 -
Vopakloop Hellevoetsluis - 12-10-2014 49:03 23 10
Spijkenisse - 09-11-2014 1:19:38 5 -
Middelharnis Pallandtloop - 20-12-2014 1:21:12 3 10
Halve van Maassluis - 18-01-2015 1:46:04 7 10
3km Testloop - 03-02-2015 13:55 26 -
Brielle - 08-02-2015 1:21:04 5 10
Halve van Oostvoorne - 14-03-2015 1:45:54 10 10

Daniella Donders

 TijdPuntenBonus
CPC loop - 08-03-2015 2:06:46 6 10

Daniella Stremme

 TijdPuntenBonus
3km Testloop - 04-11-2014 20:50 9 -
3km Testloop - 03-03-2015 19:59 13 -

Danny van Wijk

 TijdPuntenBonus
Halve van Maassluis - 18-01-2015 1:23:40 12 -

Daphne de Vette

 TijdPuntenBonus
Bruggenloop - 07-12-2014 1:37:05 4 -

Debra Brouwn

 TijdPuntenBonus
3km Testloop - 03-02-2015 19:43 13 -

Denise 't Hardt

 TijdPuntenBonus
3km Testloop - 04-11-2014 19:30 12 -

Dennis Postma

 TijdPuntenBonus
Spijkenisse Baancircuit (baan) - 11-09-2014 17:11 22 -
Vopakloop Hellevoetsluis - 12-10-2014 38:18 44 -
Nasty Night Trail - 25-10-2014 55:08 22 -
Spijkenisse - 09-11-2014 17:39 8 -
Kruininger Gorscross - 30-11-2014 49:01 9 -
Voorne's Duin Trail - 07-12-2014 2:49:30 2 -

Diana Willemsen

 TijdPuntenBonus
Spijkenisse Baancircuit (baan) - 11-09-2014 25:15 3 -
Burgh-Haamstede, Trail by the Sea - 21-09-2014 2:51:08 1 -
Vopakloop Hellevoetsluis - 12-10-2014 25:38 13 -
Berenloop Terschelling - 02-11-2014 1:59:46 2 -
3km Testloop - 04-11-2014 14:25 43 -
Kruininger Gorscross - 30-11-2014 25:38 3 -
Halve van Westvoorne - 04-01-2015 2:07:41 8 -
Halve van Maassluis - 18-01-2015 1:57:07 3 -
3km Testloop - 03-02-2015 15:37 20 -
3km Testloop - 03-03-2015 16:16 22 -

Elaine Gevaert

 TijdPuntenBonus
3km Testloop - 04-11-2014 14:10 47 10
Bruggenloop - 07-12-2014 1:19:26 19 10
Halve van Westvoorne - 04-01-2015 1:55:58 13 -
CPC loop - 08-03-2015 1:53:37 18 10

Elise van Dis

 TijdPuntenBonus
Vopakloop Hellevoetsluis - 12-10-2014 55:19 10 10

Ellen van Leeuwen

 TijdPuntenBonus
Kruininger Gorscross - 30-11-2014 1:15:56 1 -

Elza Broecks

 TijdPuntenBonus
3km Testloop - 03-02-2015 23:32 3 -
3km Testloop - 03-03-2015 23:18 3 -

Eric Zinnemers

 TijdPuntenBonus
Vopakloop Hellevoetsluis - 12-10-2014 50:10 19 -
3km Testloop - 04-11-2014 14:03 48 -
3km Testloop - 03-03-2015 14:33 26 -
Halve van Oostvoorne - 14-03-2015 1:45:38 12 10

Eric van Es

 TijdPuntenBonus
Sommelsdijk VBC - 20-09-2014 46:43 9 -
Nasty Night Trail - 25-10-2014 1:08:15 16 -
3km Testloop - 04-11-2014 12:04 64 10
Spijkenisse - 09-11-2014 1:08:04 13 10
Zevenheuvelenloop - 16-11-2014 1:07:19 16 10
3km Testloop - 06-01-2015 12:46 40 -
3km Testloop - 03-02-2015 12:32 38 -
Brielle - 08-02-2015 1:11:59 10 10

Erik de Winkel

 TijdPuntenBonus
Vopakloop Hellevoetsluis - 12-10-2014 50:01 21 -
Amsterdam marathon - 19-10-2014 5:18:36 1 -
SPARK Marathon - 14-12-2014 1:52:12 7 -
Halve van Westvoorne - 04-01-2015 1:51:02 21 -
3km Testloop - 06-01-2015 12:45 41 10
3km Testloop - 03-02-2015 13:18 33 10
CPC loop - 08-03-2015 1:45:25 20 10

Erwin Pelger

 TijdPuntenBonus
Sommelsdijk VBC - 20-09-2014 53:01 3 10
Vopakloop Hellevoetsluis - 12-10-2014 52:05 16 10
CPC loop - 08-03-2015 2:08:45 1 -

Erwin Poldervaart

 TijdPuntenBonus
Brielle - 08-02-2015 58:06 21 -
Halve van Oostvoorne - 14-03-2015 1:13:43 38 10

Esther Bloks

 TijdPuntenBonus
3km Testloop - 04-11-2014 17:40 20 10
3km Testloop - 02-12-2014 18:40 7 10
3km Testloop - 03-03-2015 17:54 21 10
Halve van Oostvoorne - 14-03-2015 55:25 5 -

Eva Hoogendoorn

 TijdPuntenBonus
3km Testloop - 06-01-2015 12:52 37 -

Ferry Becker

 TijdPuntenBonus
CPC loop - 08-03-2015 2:00:16 11 -

Ferry Engel

 TijdPuntenBonus
Sommelsdijk VBC - 20-09-2014 37:17 21 -
Vopakloop Hellevoetsluis - 12-10-2014 36:44 49 -
Amsterdam marathon - 19-10-2014 2:57:15 3 -
Spijkenisse - 09-11-2014 56:22 26 10
Middelharnis Pallandtloop - 20-12-2014 1:00:40 14 10
Halve van Maassluis - 18-01-2015 1:20:16 14 10
Halve van Oostvoorne - 14-03-2015 1:24:27 28 -

Ferry Kros

 TijdPuntenBonus
Sommelsdijk VBC - 20-09-2014 49:08 6 10
Dam tot Damloop - 21-09-2014 1:23:15 5 -
Nasty Night Trail - 25-10-2014 1:15:08 8 -
3km Testloop - 04-11-2014 12:45 58 10
Kruininger Gorscross - 30-11-2014 44:43 4 -
Voorne's Duin Trail - 07-12-2014 1:56:10 7 -
Halve van Westvoorne - 04-01-2015 1:52:45 18 -
3km Testloop - 03-02-2015 12:45 36 10
3km Testloop - 03-03-2015 12:56 34 10
Halve van Oostvoorne - 14-03-2015 1:41:20 15 10

Franka Boekelman

 TijdPuntenBonus
3km Testloop - 02-12-2014 22:03 3 10
3km Testloop - 06-01-2015 22:16 1 10

Frans Westerveld

 TijdPuntenBonus
Den Haag, Vredesloop - 20-09-2014 58:54 2 -
3km Testloop - 04-11-2014 13:58 53 10
Bruggenloop - 07-12-2014 1:18:25 24 10
SPARK Marathon - 14-12-2014 1:50:52 8 10
Halve van Westvoorne - 04-01-2015 1:52:58 17 10
3km Testloop - 06-01-2015 12:58 36 10
CPC loop - 08-03-2015 1:56:47 15 10

Fred Neubauer

 TijdPuntenBonus
Den Haag, Vredesloop - 20-09-2014 58:21 3 -
Zevenheuvelenloop - 16-11-2014 1:28:39 6 -
Bruggenloop - 07-12-2014 1:24:54 15 10
SPARK Marathon - 14-12-2014 2:07:47 1 -
Halve van Westvoorne - 04-01-2015 2:07:47 7 -
3km Testloop - 06-01-2015 15:12 21 10
3km Testloop - 03-03-2015 15:40 25 -
CPC loop - 08-03-2015 1:58:40 13 10

Fred de Zeeuw

 TijdPuntenBonus
Burgh-Haamstede, Trail by the Sea - 21-09-2014 2:05:20 6 -
Nasty Night Trail - 25-10-2014 1:17:42 6 -
3km Testloop - 04-11-2014 13:26 54 10
Voorne's Duin Trail - 07-12-2014 2:02:47 2 -
Halve van Westvoorne - 04-01-2015 1:53:14 16 -
3km Testloop - 06-01-2015 14:11 28 -
3km Testloop - 03-02-2015 13:30 30 10

Gail Tsang

 TijdPuntenBonus
Zevenheuvelenloop - 16-11-2014 1:32:15 3 10
Halve van Westvoorne - 04-01-2015 1:02:39 2 10

Galina Mamaewa

 TijdPuntenBonus
Burgh-Haamstede, Trail by the Sea - 21-09-2014 2:43:42 3 -
Berenloop Terschelling - 02-11-2014 2:11:33 1 -
Halve van Westvoorne - 04-01-2015 2:14:01 2 -
3km Testloop - 06-01-2015 18:35 9 -
Kruininger Gorscross - 25-01-2015 53:27 1 -

Gerard van Haastert

 TijdPuntenBonus
Vopakloop Hellevoetsluis - 12-10-2014 53:24 14 -
Halve van Westvoorne - 04-01-2015 1:59:07 9 -

Gert-Jan Goudappel

 TijdPuntenBonus
Spijkenisse Baancircuit (baan) - 11-09-2014 19:01 12 10
Vopakloop Hellevoetsluis - 12-10-2014 39:34 40 10
Spijkenisse - 09-11-2014 1:22:07 4 -

Hanneke Dumont

 TijdPuntenBonus
3km Testloop - 06-01-2015 21:37 2 10
3km Testloop - 03-03-2015 21:18 9 10

Hans Berendsen

 TijdPuntenBonus
Vopakloop Hellevoetsluis - 12-10-2014 36:26 50 -
Spijkenisse - 09-11-2014 55:30 28 10
Kruininger Gorscross - 30-11-2014 49:28 8 -
Bruggenloop - 07-12-2014 55:48 29 10
Middelharnis Pallandtloop - 20-12-2014 59:18 16 10
Halve van Westvoorne - 04-01-2015 1:20:56 34 -
Brielle - 08-02-2015 58:14 20 10
Halve van Oostvoorne - 14-03-2015 1:15:56 37 10

Hans Lazet

 TijdPuntenBonus
3km Testloop - 07-10-2014 18:28 8 10
3km Testloop - 03-02-2015 20:57 8 -

Hans van Bommel

 TijdPuntenBonus
Burgh-Haamstede, Trail by the Sea - 21-09-2014 1:51:55 11 -
Voorne's Duin Trail - 07-12-2014 1:43:52 14 -
3km Testloop - 06-01-2015 11:44 45 10
3km Testloop - 03-02-2015 11:26 41 10

Hans van Bommel.

 TijdPuntenBonus
Halve van Westvoorne - 04-01-2015 1:37:32 27 -
Halve van Oostvoorne - 14-03-2015 1:31:24 24 -

Heidi Wagner

 TijdPuntenBonus
3km Testloop - 04-11-2014 19:18 14 10
3km Testloop - 03-02-2015 19:43 13 -
3km Testloop - 03-03-2015 18:11 20 10

Heleen Koelewijn

 TijdPuntenBonus
3km Testloop - 06-01-2015 18:02 10 10

Heleen Machielse

 TijdPuntenBonus
3km Testloop - 07-10-2014 22:45 3 -

Henk van Leeuwen

 TijdPuntenBonus
Halve van Maassluis - 18-01-2015 15:04 2 10

Inge Kasius

 TijdPuntenBonus
Spijkenisse Baancircuit (baan) - 11-09-2014 24:39 5 10
Sommelsdijk VBC - 20-09-2014 53:53 2 10
Vopakloop Hellevoetsluis - 12-10-2014 55:02 11 -
3km Testloop - 04-11-2014 14:02 49 10
Spijkenisse - 09-11-2014 1:22:33 3 10
Zevenheuvelenloop - 16-11-2014 1:20:16 12 10
Bruggenloop - 07-12-2014 1:18:28 22 10
Middelharnis Pallandtloop - 20-12-2014 1:30:15 1 10
Halve van Westvoorne - 04-01-2015 2:12:48 3 -
3km Testloop - 06-01-2015 14:20 26 10
3km Testloop - 03-02-2015 14:03 25 10
Brielle - 08-02-2015 1:29:17 2 10
Halve van Oostvoorne - 14-03-2015 1:54:35 4 10

Irene Sjouw

 TijdPuntenBonus
3km Testloop - 02-12-2014 23:28 1 -
3km Testloop - 03-02-2015 23:32 3 -
3km Testloop - 03-03-2015 23:18 3 10

Iskander van der Wijngaard

 TijdPuntenBonus
Spijkenisse Baancircuit (baan) - 11-09-2014 17:39 19 10
Sommelsdijk VBC - 20-09-2014 36:06 23 10
Vopakloop Hellevoetsluis - 12-10-2014 36:21 51 10
Nasty Night Trail - 25-10-2014 57:09 20 -
Spijkenisse - 09-11-2014 55:02 29 10
Bruggenloop - 07-12-2014 56:01 28 10
Middelharnis Pallandtloop - 20-12-2014 59:11 17 10
Halve van Maassluis - 18-01-2015 1:17:44 17 10
Brielle - 08-02-2015 59:40 17 10
Halve van Oostvoorne - 14-03-2015 1:17:15 35 10

Jack van Tilburg

 TijdPuntenBonus
3km Testloop - 04-11-2014 17:35 21 -
3km Testloop - 02-12-2014 18:32 8 -
3km Testloop - 03-02-2015 16:31 16 10

Jacky Bareman

 TijdPuntenBonus
Vopakloop Hellevoetsluis - 12-10-2014 52:43 15 10
Nasty Night Trail - 25-10-2014 1:32:12 2 -
3km Testloop - 04-11-2014 14:52 36 10
SPARK Marathon - 14-12-2014 2:02:47 3 -
Brielle - 08-02-2015 1:34:34 1 -
CPC loop - 08-03-2015 2:02:38 10 -

Jacqueline Nodelijk

 TijdPuntenBonus
Vopakloop Hellevoetsluis - 12-10-2014 55:47 8 10
CPC loop - 08-03-2015 2:07:10 3 -

Jacques Slingerland

 TijdPuntenBonus
Berenloop Terschelling - 02-11-2014 1:59:45 3 -

Jan Kweekel

 TijdPuntenBonus
Sommelsdijk VBC - 20-09-2014 43:43 13 -
Spijkenisse - 09-11-2014 1:06:12 16 10
Zevenheuvelenloop - 16-11-2014 1:05:21 18 10
SPARK Marathon - 14-12-2014 3:19:49 1 10
Brielle - 08-02-2015 1:13:07 9 -
3km Testloop - 03-03-2015 12:44 36 -
Halve van Oostvoorne - 14-03-2015 1:36:53 17 10

Jan Wegereef

 TijdPuntenBonus
Burgh-Haamstede, Trail by the Sea - 21-09-2014 1:56:25 10 -
Voorne's Duin Trail - 07-12-2014 1:56:38 5 -
Halve van Westvoorne - 04-01-2015 1:43:10 25 10
3km Testloop - 03-02-2015 13:43 28 -
Halve van Oostvoorne - 14-03-2015 1:44:06 13 10

Jason Duijvenvoorde

 TijdPuntenBonus
Halve van Westvoorne - 04-01-2015 1:54:03 15 -
3km Testloop - 06-01-2015 14:06 30 -
3km Testloop - 03-02-2015 12:48 35 10

Jeroen Duizendstra

 TijdPuntenBonus
3km Testloop - 06-01-2015 14:15 27 -
3km Testloop - 03-02-2015 12:32 38 10

Joek Sloots

 TijdPuntenBonus
Spijkenisse Baancircuit (baan) - 11-09-2014 24:54 4 -
Sommelsdijk VBC - 20-09-2014 50:36 4 -
Vopakloop Hellevoetsluis - 12-10-2014 49:48 22 10
3km Testloop - 04-11-2014 14:19 45 -
Spijkenisse - 09-11-2014 1:16:20 6 10
SPARK Marathon - 14-12-2014 1:48:46 9 10
Middelharnis Pallandtloop - 20-12-2014 1:21:42 2 10
Halve van Westvoorne - 04-01-2015 1:57:32 11 -
3km Testloop - 06-01-2015 14:50 22 -
Halve van Maassluis - 18-01-2015 1:48:52 6 10
3km Testloop - 03-02-2015 14:35 23 -
Brielle - 08-02-2015 1:20:49 6 10
Halve van Oostvoorne - 14-03-2015 1:49:27 6 10

Johan Engel

 TijdPuntenBonus
Vopakloop Hellevoetsluis - 12-10-2014 23:35 17 -
3km Testloop - 04-11-2014 13:14 55 -

John Hemmerlé

 TijdPuntenBonus
Spijkenisse Baancircuit (baan) - 11-09-2014 18:41 13 10
Dam tot Damloop - 21-09-2014 1:06:13 8 -
Vopakloop Hellevoetsluis - 12-10-2014 38:33 43 10

John Lavooij

 TijdPuntenBonus
Vopakloop Hellevoetsluis - 12-10-2014 23:41 16 -
Nasty Night Trail - 25-10-2014 1:13:01 10 -
3km Testloop - 04-11-2014 12:48 56 10
Voorne's Duin Trail - 07-12-2014 1:56:36 6 -
3km Testloop - 06-01-2015 13:06 35 -

Jolanda Troost

 TijdPuntenBonus
Spijkenisse Baancircuit (baan) - 11-09-2014 19:14 11 10
Halve van Oostvoorne - 14-03-2015 38:17 8 -

Jolanda den Boer

 TijdPuntenBonus
3km Testloop - 03-02-2015 21:08 7 -
3km Testloop - 03-03-2015 21:34 7 -
Halve van Oostvoorne - 14-03-2015 57:22 3 -

Joop Hartog

 TijdPuntenBonus
3km Testloop - 04-11-2014 17:40 20 -

Joop Helbers

 TijdPuntenBonus
Voorne's Duin Trail - 07-12-2014 1:39:13 18 -
Middelharnis Pallandtloop - 20-12-2014 1:01:26 12 10
Halve van Maassluis - 18-01-2015 1:19:06 15 10
Halve van Oostvoorne - 14-03-2015 1:15:59 36 10

Jorgen Westbroek

 TijdPuntenBonus
Voorne's Duin Trail - 07-12-2014 2:02:59 1 -

Joris Straver

 TijdPuntenBonus
3km Testloop - 04-11-2014 14:32 42 -

Jos Geraets

 TijdPuntenBonus
Sommelsdijk VBC - 20-09-2014 29:37 3 10
3km Testloop - 07-10-2014 16:10 9 10
Vopakloop Hellevoetsluis - 12-10-2014 27:15 12 10

Jos Mastenbroek

 TijdPuntenBonus
3km Testloop - 04-11-2014 12:25 61 10
3km Testloop - 06-01-2015 12:32 43 10
3km Testloop - 03-02-2015 12:48 35 -
3km Testloop - 03-03-2015 11:51 40 10

Jos Noordegraaf

 TijdPuntenBonus
Voorne's Duin Trail - 07-12-2014 1:46:25 9 -

Kees Noordhoek

 TijdPuntenBonus
Dam tot Damloop - 21-09-2014 1:35:32 3 -
Bruggenloop - 07-12-2014 1:32:30 6 -
CPC loop - 08-03-2015 1:58:34 14 10

Leen van der Wiel

 TijdPuntenBonus
3km Testloop - 07-10-2014 22:57 2 10

Leo Turkenburg

 TijdPuntenBonus
3km Testloop - 04-11-2014 17:52 18 -
Kruininger Gorscross - 30-11-2014 30:30 2 -
Bruggenloop - 07-12-2014 1:36:15 5 -
3km Testloop - 06-01-2015 19:02 8 -

Leo van Zielst

 TijdPuntenBonus
Spijkenisse Baancircuit (baan) - 11-09-2014 23:26 6 -
Sommelsdijk VBC - 20-09-2014 48:14 8 -
Dam tot Damloop - 21-09-2014 1:21:56 6 -
Vopakloop Hellevoetsluis - 12-10-2014 45:31 28 10
Nasty Night Trail - 25-10-2014 1:19:31 4 -
3km Testloop - 04-11-2014 12:45 58 10
Spijkenisse - 09-11-2014 1:09:48 10 10
Voorne's Duin Trail - 07-12-2014 1:55:38 8 -
SPARK Marathon - 14-12-2014 1:43:22 11 10
Middelharnis Pallandtloop - 20-12-2014 1:15:33 5 10
3km Testloop - 06-01-2015 12:47 39 10
Halve van Maassluis - 18-01-2015 1:52:22 5 -
3km Testloop - 03-02-2015 13:26 31 -
Brielle - 08-02-2015 1:20:27 7 -
3km Testloop - 03-03-2015 13:23 32 -
CPC loop - 08-03-2015 1:43:39 21 10
Halve van Oostvoorne - 14-03-2015 1:42:59 14 10

Leo van der Linden

 TijdPuntenBonus
3km Testloop - 04-11-2014 14:40 41 -

Lizette van Dam

 TijdPuntenBonus
3km Testloop - 04-11-2014 19:11 15 10

Louis de Koning

 TijdPuntenBonus
Vopakloop Hellevoetsluis - 12-10-2014 38:39 42 -
Brielle - 08-02-2015 1:00:32 16 10

Maarten Jongeneel

 TijdPuntenBonus
3km Testloop - 04-11-2014 16:49 27 10
3km Testloop - 06-01-2015 16:52 11 10

Maarten Krijnen

 TijdPuntenBonus
Sommelsdijk VBC - 20-09-2014 37:31 20 -
Vopakloop Hellevoetsluis - 12-10-2014 36:57 48 10
Spijkenisse - 09-11-2014 55:54 27 10
Kruininger Gorscross - 30-11-2014 35:05 6 -
Middelharnis Pallandtloop - 20-12-2014 1:01:49 11 10
Brielle - 08-02-2015 1:01:25 13 10
Halve van Oostvoorne - 14-03-2015 1:21:55 29 10

Marc van Bergen

 TijdPuntenBonus
Vopakloop Hellevoetsluis - 12-10-2014 56:23 7 -
Zevenheuvelenloop - 16-11-2014 1:32:17 2 -
Bruggenloop - 07-12-2014 1:29:35 9 -
Halve van Westvoorne - 04-01-2015 2:22:14 1 -
CPC loop - 08-03-2015 2:07:06 4 -

Marcel Bewier

 TijdPuntenBonus
Den Haag, Vredesloop - 20-09-2014 55:31 4 -
Vopakloop Hellevoetsluis - 12-10-2014 25:15 14 10
3km Testloop - 04-11-2014 14:22 44 10
Zevenheuvelenloop - 16-11-2014 1:27:49 7 -
Bruggenloop - 07-12-2014 1:21:52 17 10
Halve van Westvoorne - 04-01-2015 1:58:03 10 10
3km Testloop - 06-01-2015 14:07 29 10
CPC loop - 08-03-2015 1:54:55 17 10

Marcel Fiering

 TijdPuntenBonus
Spijkenisse Baancircuit (baan) - 11-09-2014 18:13 17 10
SPARK Marathon - 14-12-2014 35:44 5 10

Marcel Gelton

 TijdPuntenBonus
Spijkenisse Baancircuit (baan) - 11-09-2014 18:13 17 10
Vopakloop Hellevoetsluis - 12-10-2014 38:52 41 10
Nasty Night Trail - 25-10-2014 1:00:43 19 -
Spijkenisse - 09-11-2014 1:01:02 21 10
Bruggenloop - 07-12-2014 58:59 26 10
SPARK Marathon - 14-12-2014 38:38 3 10

Marcel Straver

 TijdPuntenBonus
3km Testloop - 04-11-2014 14:15 46 -

Marcel van Rumpt

 TijdPuntenBonus
Sommelsdijk VBC - 20-09-2014 23:06 4 -
Bruggenloop - 07-12-2014 1:19:08 20 -
Middelharnis Pallandtloop - 20-12-2014 36:27 2 -
Halve van Westvoorne - 04-01-2015 47:25 5 -

Marco Baas

 TijdPuntenBonus
Bruggenloop - 07-12-2014 1:18:58 21 10

Marian van Dijk

 TijdPuntenBonus
3km Testloop - 04-11-2014 17:08 23 -

Marielle Grijzenhout

 TijdPuntenBonus
3km Testloop - 07-10-2014 18:28 8 10
Vopakloop Hellevoetsluis - 12-10-2014 31:52 6 10
3km Testloop - 04-11-2014 18:15 17 10
3km Testloop - 02-12-2014 17:54 9 10

Marinda Lub

 TijdPuntenBonus
3km Testloop - 03-02-2015 14:25 24 10

Marja Willekes

 TijdPuntenBonus
3km Testloop - 06-01-2015 16:45 13 -

Marjan de Waaij

 TijdPuntenBonus
Sommelsdijk VBC - 20-09-2014 43:48 12 10
Vopakloop Hellevoetsluis - 12-10-2014 42:45 32 10
Spijkenisse - 09-11-2014 1:08:27 12 -
Middelharnis Pallandtloop - 20-12-2014 1:13:38 6 -
Halve van Westvoorne - 04-01-2015 1:42:34 26 -
Halve van Maassluis - 18-01-2015 1:36:40 8 10
Kruininger Gorscross - 25-01-2015 1:06:46 1 -
Halve van Oostvoorne - 14-03-2015 1:33:59 22 10

Mark Jooren

 TijdPuntenBonus
3km Testloop - 07-10-2014 15:15 12 -

Marleen Kweekel

 TijdPuntenBonus
3km Testloop - 07-10-2014 19:34 4 10
Vopakloop Hellevoetsluis - 12-10-2014 33:30 3 10
Spijkenisse - 09-11-2014 32:55 2 10

Marvin Verroen

 TijdPuntenBonus
CPC loop - 08-03-2015 1:47:18 19 -

Mary Noordhoek

 TijdPuntenBonus
Bruggenloop - 07-12-2014 1:32:23 7 10

Melvin Kruik

 TijdPuntenBonus
Kruininger Gorscross - 30-11-2014 18:19 4 -
Middelharnis Pallandtloop - 20-12-2014 31:02 5 -
Halve van Maassluis - 18-01-2015 17:59 1 -
Kruininger Gorscross - 25-01-2015 18:39 2 -

Merel Boerstra

 TijdPuntenBonus
3km Testloop - 04-11-2014 18:41 16 -

Michelle Knegt

 TijdPuntenBonus
3km Testloop - 04-11-2014 22:52 2 10
3km Testloop - 02-12-2014 22:54 2 10
3km Testloop - 03-03-2015 23:01 4 -

Michiel Stijntjes

 TijdPuntenBonus
Burgh-Haamstede, Trail by the Sea - 21-09-2014 1:56:35 9 -
Nasty Night Trail - 25-10-2014 1:08:44 14 -
3km Testloop - 04-11-2014 12:13 63 10
Spijkenisse - 09-11-2014 1:07:36 15 10
Kruininger Gorscross - 30-11-2014 1:01:52 4 -
Voorne's Duin Trail - 07-12-2014 1:45:11 12 -
SPARK Marathon - 14-12-2014 1:37:40 13 10
3km Testloop - 03-03-2015 11:56 38 10
Halve van Oostvoorne - 14-03-2015 1:35:31 19 10

Mieke van den Bos

 TijdPuntenBonus
Kruininger Gorscross - 25-01-2015 25:23 1 -

Miriam Oomen

 TijdPuntenBonus
Vopakloop Hellevoetsluis - 12-10-2014 50:43 18 10
Nasty Night Trail - 25-10-2014 1:19:30 5 -
Zevenheuvelenloop - 16-11-2014 1:15:03 15 10
Kruininger Gorscross - 30-11-2014 46:13 3 -
Voorne's Duin Trail - 07-12-2014 2:02:38 4 -
SPARK Marathon - 14-12-2014 1:48:22 10 10
Halve van Westvoorne - 04-01-2015 1:55:58 13 10
3km Testloop - 03-02-2015 13:30 30 10
3km Testloop - 03-03-2015 13:33 28 10
Halve van Oostvoorne - 14-03-2015 1:46:51 9 10

Monica van der Heuvel

 TijdPuntenBonus
3km Testloop - 04-11-2014 17:07 24 -

Monique Baars

 TijdPuntenBonus
Vopakloop Hellevoetsluis - 12-10-2014 50:08 20 10
Spijkenisse - 09-11-2014 24:52 4 -
SPARK Marathon - 14-12-2014 1:52:12 7 10
3km Testloop - 06-01-2015 14:02 31 10
3km Testloop - 03-02-2015 13:54 27 10
3km Testloop - 03-03-2015 13:46 27 10
Halve van Oostvoorne - 14-03-2015 1:48:21 7 10

Nabil Allal el Bakhti

 TijdPuntenBonus
3km Testloop - 03-02-2015 13:21 32 -
3km Testloop - 03-03-2015 13:26 31 -

Nancy Berkelaar

 TijdPuntenBonus
Den Haag, Vredesloop - 20-09-2014 1:02:01 1 -
3km Testloop - 07-10-2014 16:09 10 10
Vopakloop Hellevoetsluis - 12-10-2014 27:24 11 10
3km Testloop - 04-11-2014 15:53 33 10

Natasja Herman

 TijdPuntenBonus
3km Testloop - 04-11-2014 22:10 5 -
3km Testloop - 03-02-2015 20:31 10 10
3km Testloop - 03-03-2015 21:00 11 10

Natasja de Winkel

 TijdPuntenBonus
CPC loop - 08-03-2015 30:57 1 -

Nathalie van Dalsen

 TijdPuntenBonus
Vopakloop Hellevoetsluis - 12-10-2014 57:15 5 10
3km Testloop - 04-11-2014 16:13 31 10
CPC loop - 08-03-2015 2:08:10 2 10

Nathalie van der Pluym

 TijdPuntenBonus
3km Testloop - 03-02-2015 20:37 9 -
3km Testloop - 03-03-2015 21:00 11 -

Nel van der Knaap

 TijdPuntenBonus
Vopakloop Hellevoetsluis - 12-10-2014 31:16 9 -
Halve van Oostvoorne - 14-03-2015 52:42 6 -

Nicolette Mager

 TijdPuntenBonus
Sommelsdijk VBC - 20-09-2014 36:29 1 -
Vopakloop Hellevoetsluis - 12-10-2014 33:11 5 10
3km Testloop - 04-11-2014 19:32 11 10
Spijkenisse - 09-11-2014 32:52 3 10
Middelharnis Pallandtloop - 20-12-2014 57:01 1 -
3km Testloop - 03-02-2015 19:10 14 10
Brielle - 08-02-2015 33:01 1 10
3km Testloop - 03-03-2015 18:50 19 10
Halve van Oostvoorne - 14-03-2015 57:24 2 -

Niels Vernes

 TijdPuntenBonus
Sommelsdijk VBC - 20-09-2014 22:27 5 -
Vopakloop Hellevoetsluis - 12-10-2014 20:32 18 10
Nasty Night Trail - 25-10-2014 1:08:42 15 -
Spijkenisse - 09-11-2014 20:24 6 10
Voorne's Duin Trail - 07-12-2014 1:45:10 13 -
Middelharnis Pallandtloop - 20-12-2014 33:37 4 -
3km Testloop - 06-01-2015 11:26 49 10
Halve van Maassluis - 18-01-2015 1:33:25 9 10
Brielle - 08-02-2015 19:55 3 10
3km Testloop - 03-03-2015 11:32 41 10

Niels van den Boogert

 TijdPuntenBonus
Vopakloop Hellevoetsluis - 12-10-2014 41:49 35 10
Halve van Oostvoorne - 14-03-2015 1:35:15 20 -

Onno Teders

 TijdPuntenBonus
Spijkenisse Baancircuit (baan) - 11-09-2014 25:19 2 10
Sommelsdijk VBC - 20-09-2014 1:00:03 1 -
Etten-Leur - 26-10-2014 54:39 1 10
3km Testloop - 04-11-2014 14:40 41 10
Zevenheuvelenloop - 16-11-2014 1:25:48 9 10

Paul van der Leij

 TijdPuntenBonus
Sommelsdijk VBC - 20-09-2014 48:51 7 10
Vopakloop Hellevoetsluis - 12-10-2014 47:01 27 10
Spijkenisse - 09-11-2014 1:13:39 9 10
SPARK Marathon - 14-12-2014 24:31 2 -
Brielle - 08-02-2015 1:19:10 8 10
Halve van Oostvoorne - 14-03-2015 1:50:53 5 10

Paula Groot

 TijdPuntenBonus
Burgh-Haamstede, Trail by the Sea - 21-09-2014 2:13:48 4 -
Vopakloop Hellevoetsluis - 12-10-2014 47:33 24 10
Etten-Leur - 26-10-2014 1:56:41 1 -
Spijkenisse - 09-11-2014 1:14:30 8 10
Kruininger Gorscross - 30-11-2014 1:06:38 2 -
Voorne's Duin Trail - 07-12-2014 2:02:38 4 -
Middelharnis Pallandtloop - 20-12-2014 1:17:54 4 10
Halve van Westvoorne - 04-01-2015 1:51:13 19 -
Brielle - 08-02-2015 1:21:16 3 10
3km Testloop - 03-03-2015 13:31 29 10
Halve van Oostvoorne - 14-03-2015 1:48:12 8 10

Peter Blok

 TijdPuntenBonus
Vopakloop Hellevoetsluis - 12-10-2014 47:30 25 10
3km Testloop - 06-01-2015 13:42 32 10

Peter Duijvestijn

 TijdPuntenBonus
3km Testloop - 04-11-2014 19:21 13 10
3km Testloop - 02-12-2014 19:25 6 10
3km Testloop - 03-02-2015 19:45 11 -
3km Testloop - 03-03-2015 19:50 14 -

Peter Schinkel

 TijdPuntenBonus
Burgh-Haamstede, Trail by the Sea - 21-09-2014 2:07:42 5 -
Halve van Westvoorne - 04-01-2015 1:48:13 22 -
3km Testloop - 06-01-2015 12:51 38 10
3km Testloop - 03-03-2015 12:52 35 10

Peter van Meel

 TijdPuntenBonus
Dam tot Damloop - 21-09-2014 1:44:49 1 -
Vopakloop Hellevoetsluis - 12-10-2014 58:59 2 -

Petra Strik

 TijdPuntenBonus
Spijkenisse Baancircuit (baan) - 11-09-2014 25:23 1 10
Nasty Night Trail - 25-10-2014 1:37:10 1 -
3km Testloop - 04-11-2014 14:49 37 -
Spijkenisse - 09-11-2014 52:35 2 10
Bruggenloop - 07-12-2014 1:25:38 14 -

Ralph van de Grijp

 TijdPuntenBonus
Burgh-Haamstede, Trail by the Sea - 21-09-2014 2:02:21 7 -
Nasty Night Trail - 25-10-2014 1:08:58 13 -
Voorne's Duin Trail - 07-12-2014 1:42:38 15 -
SPARK Marathon - 14-12-2014 41:11 2 10
3km Testloop - 03-03-2015 13:14 33 -

Ramon van der Knaap

 TijdPuntenBonus
Sommelsdijk VBC - 20-09-2014 41:31 16 10
Vopakloop Hellevoetsluis - 12-10-2014 39:55 37 10
3km Testloop - 04-11-2014 11:01 69 10
Spijkenisse - 09-11-2014 1:02:10 20 10
Voorne's Duin Trail - 07-12-2014 1:39:15 17 -
Middelharnis Pallandtloop - 20-12-2014 1:07:07 7 10
Halve van Westvoorne - 04-01-2015 1:44:18 24 -
3km Testloop - 06-01-2015 11:36 47 10
Kruininger Gorscross - 25-01-2015 59:16 2 -
3km Testloop - 03-02-2015 11:09 43 10
Halve van Oostvoorne - 14-03-2015 1:27:16 27 10

Raymond Wissink

 TijdPuntenBonus
Den Haag, Vredesloop - 20-09-2014 54:13 5 -
Nasty Night Trail - 25-10-2014 1:23:59 3 -
Zevenheuvelenloop - 16-11-2014 1:18:01 13 10
Kruininger Gorscross - 30-11-2014 50:00 1 -
Bruggenloop - 07-12-2014 1:27:00 13 -
Halve van Westvoorne - 04-01-2015 1:55:48 14 -
Halve van Oostvoorne - 14-03-2015 1:54:48 3 -

Remco Palm

 TijdPuntenBonus
Nasty Night Trail - 25-10-2014 1:09:37 11 -
3km Testloop - 04-11-2014 12:02 65 10

Remko Kap

 TijdPuntenBonus
Burgh-Haamstede, Trail by the Sea - 21-09-2014 2:43:44 2 -
Vopakloop Hellevoetsluis - 12-10-2014 36:03 52 10
Nasty Night Trail - 25-10-2014 55:40 21 -
Berenloop Terschelling - 02-11-2014 2:53:08 1 10
Spijkenisse - 09-11-2014 56:36 25 10
Halve van Westvoorne - 04-01-2015 1:33:43 30 -
Kruininger Gorscross - 25-01-2015 49:22 5 -

Richard Goedendorp

 TijdPuntenBonus
Spijkenisse Baancircuit (baan) - 11-09-2014 20:02 10 10
Sommelsdijk VBC - 20-09-2014 42:26 15 10
Vopakloop Hellevoetsluis - 12-10-2014 42:15 33 10
3km Testloop - 04-11-2014 11:46 67 10
Spijkenisse - 09-11-2014 1:05:50 17 10
Zevenheuvelenloop - 16-11-2014 1:04:29 19 10
Bruggenloop - 07-12-2014 1:18:27 23 -
3km Testloop - 06-01-2015 14:22 25 -
3km Testloop - 03-02-2015 11:55 40 10
Brielle - 08-02-2015 1:11:23 11 10
Halve van Oostvoorne - 14-03-2015 1:36:08 18 10

Richard Granneman

 TijdPuntenBonus
Sommelsdijk VBC - 20-09-2014 45:52 11 10
Burgh-Haamstede, Trail by the Sea - 21-09-2014 2:01:00 8 -
Vopakloop Hellevoetsluis - 12-10-2014 45:09 29 10
Etten-Leur - 26-10-2014 3:51:33 1 -
3km Testloop - 04-11-2014 12:28 60 10
Spijkenisse - 09-11-2014 1:07:56 14 10
Kruininger Gorscross - 30-11-2014 1:03:12 3 -
3km Testloop - 02-12-2014 12:32 11 10
Voorne's Duin Trail - 07-12-2014 1:45:12 11 -
SPARK Marathon - 14-12-2014 1:41:26 12 10
Halve van Westvoorne - 04-01-2015 1:51:06 20 -
3km Testloop - 06-01-2015 13:27 33 -
Brielle - 08-02-2015 1:21:13 4 -
3km Testloop - 03-03-2015 13:26 31 -
Halve van Oostvoorne - 14-03-2015 1:45:40 11 -

Richard van Waardenburg

 TijdPuntenBonus
Sommelsdijk VBC - 20-09-2014 38:24 17 -
Vopakloop Hellevoetsluis - 12-10-2014 37:44 46 10
Spijkenisse - 09-11-2014 57:18 23 10
Kruininger Gorscross - 30-11-2014 34:29 7 -
Bruggenloop - 07-12-2014 57:52 27 10
Middelharnis Pallandtloop - 20-12-2014 1:02:10 9 10
Halve van Westvoorne - 04-01-2015 1:24:33 32 -
Halve van Maassluis - 18-01-2015 1:20:41 13 10
Brielle - 08-02-2015 1:01:17 14 10
CPC loop - 08-03-2015 1:21:47 22 10
Halve van Oostvoorne - 14-03-2015 1:18:45 31 10

Rien Roskam

 TijdPuntenBonus
3km Testloop - 04-11-2014 16:45 28 -
3km Testloop - 06-01-2015 16:10 15 10
3km Testloop - 03-02-2015 16:10 19 10
3km Testloop - 03-03-2015 16:12 23 10

Rini van de Westelaken

 TijdPuntenBonus
3km Testloop - 07-10-2014 18:34 5 10
Bruggenloop - 07-12-2014 1:28:54 10 10

Rob Leijn

 TijdPuntenBonus
3km Testloop - 06-01-2015 15:49 18 -

Rob van der Elburg

 TijdPuntenBonus
Den Haag, Vredesloop - 20-09-2014 52:07 6 10
Vopakloop Hellevoetsluis - 12-10-2014 47:07 26 10
Nasty Night Trail - 25-10-2014 1:15:07 9 -
Zevenheuvelenloop - 16-11-2014 1:16:57 14 10

Robert van Lenten

 TijdPuntenBonus
Vopakloop Hellevoetsluis - 12-10-2014 39:37 39 10
Spijkenisse - 09-11-2014 24:04 5 -

Ron Moerland

 TijdPuntenBonus
Spijkenisse Baancircuit (baan) - 11-09-2014 20:36 8 10
Sommelsdijk VBC - 20-09-2014 22:19 6 10
Vopakloop Hellevoetsluis - 12-10-2014 20:16 19 10
Etten-Leur - 26-10-2014 3:39:48 2 10
3km Testloop - 04-11-2014 12:01 66 10
Spijkenisse - 09-11-2014 20:07 7 10
Kruininger Gorscross - 30-11-2014 40:37 5 -
Middelharnis Pallandtloop - 20-12-2014 34:27 3 -
3km Testloop - 06-01-2015 11:56 44 10
Brielle - 08-02-2015 20:12 2 10
3km Testloop - 03-03-2015 11:25 42 10
Halve van Oostvoorne - 14-03-2015 1:31:12 25 10

Ronald Claessen

 TijdPuntenBonus
3km Testloop - 07-10-2014 14:10 13 -

Rui Soares Aguiar

 TijdPuntenBonus
3km Testloop - 04-11-2014 12:36 59 10

Ruud de Grood

 TijdPuntenBonus
Amsterdam marathon - 19-10-2014 1:55:57 1 -
Etten-Leur - 26-10-2014 1:51:42 2 10
3km Testloop - 04-11-2014 14:43 39 -
SPARK Marathon - 14-12-2014 1:55:47 5 -
3km Testloop - 06-01-2015 14:31 24 -
Halve van Oostvoorne - 14-03-2015 1:56:09 1 -

Ruud de Vette

 TijdPuntenBonus
Spijkenisse Baancircuit (baan) - 11-09-2014 18:38 14 10
Sommelsdijk VBC - 20-09-2014 38:19 18 10
Vopakloop Hellevoetsluis - 12-10-2014 38:16 45 10
Amsterdam marathon - 19-10-2014 3:00:27 2 10
Nasty Night Trail - 25-10-2014 1:01:08 17 -
Kruininger Gorscross - 30-11-2014 53:45 5 -
Voorne's Duin Trail - 07-12-2014 3:06:12 1 -
Halve van Maassluis - 18-01-2015 1:23:41 11 10

Sabine van der Vecht

 TijdPuntenBonus
3km Testloop - 04-11-2014 23:02 1 -

Sander Klink

 TijdPuntenBonus
Spijkenisse Baancircuit (baan) - 11-09-2014 20:08 9 10
Sommelsdijk VBC - 20-09-2014 42:34 14 -
Vopakloop Hellevoetsluis - 12-10-2014 42:10 34 10
Nasty Night Trail - 25-10-2014 1:09:10 12 -
3km Testloop - 04-11-2014 11:45 68 -
Spijkenisse - 09-11-2014 1:04:42 18 10
Zevenheuvelenloop - 16-11-2014 1:07:13 17 -
Bruggenloop - 07-12-2014 1:04:12 25 10
SPARK Marathon - 14-12-2014 28:48 1 -
Middelharnis Pallandtloop - 20-12-2014 1:07:04 8 10
Halve van Westvoorne - 04-01-2015 1:36:12 29 -
3km Testloop - 06-01-2015 11:38 46 10
3km Testloop - 03-02-2015 11:20 42 10
Brielle - 08-02-2015 1:07:55 12 10
3km Testloop - 03-03-2015 11:51 40 -
Halve van Oostvoorne - 14-03-2015 1:34:30 21 -

Sander Peters

 TijdPuntenBonus
Spijkenisse Baancircuit (baan) - 11-09-2014 18:12 18 -
Sommelsdijk VBC - 20-09-2014 38:07 19 -
Etten-Leur - 26-10-2014 36:52 2 10
Spijkenisse - 09-11-2014 56:39 24 10
Zevenheuvelenloop - 16-11-2014 56:00 20 10
Kruininger Gorscross - 30-11-2014 33:54 8 -
Bruggenloop - 07-12-2014 55:40 30 10
Middelharnis Pallandtloop - 20-12-2014 1:00:43 13 10
Halve van Westvoorne - 04-01-2015 1:24:01 33 -
Brielle - 08-02-2015 59:24 18 10
Halve van Oostvoorne - 14-03-2015 1:29:15 26 -

Sandra Kweekel

 TijdPuntenBonus
3km Testloop - 04-11-2014 17:05 26 10
3km Testloop - 06-01-2015 16:45 13 10

Silvia Turkenburg

 TijdPuntenBonus
3km Testloop - 04-11-2014 17:22 22 10
Kruininger Gorscross - 30-11-2014 32:27 1 -
Bruggenloop - 07-12-2014 1:40:49 3 10
3km Testloop - 06-01-2015 19:31 5 -

Silvia Vendeloo

 TijdPuntenBonus
3km Testloop - 07-10-2014 16:07 11 10
Vopakloop Hellevoetsluis - 12-10-2014 58:24 3 10
Spijkenisse - 09-11-2014 58:40 1 10
3km Testloop - 02-12-2014 16:16 10 10
3km Testloop - 06-01-2015 16:03 16 10
3km Testloop - 03-02-2015 16:23 17 10
3km Testloop - 03-03-2015 19:11 16 -
CPC loop - 08-03-2015 57:41 1 10

Simone van Bodegom

 TijdPuntenBonus
3km Testloop - 04-11-2014 20:50 9 -
3km Testloop - 02-12-2014 19:50 5 10
3km Testloop - 03-03-2015 20:00 12 10

Sylvia Hogerheijde

 TijdPuntenBonus
Vopakloop Hellevoetsluis - 12-10-2014 1:06:36 1 -
3km Testloop - 06-01-2015 20:20 4 -

Sylvia Schinkel

 TijdPuntenBonus
Halve van Westvoorne - 04-01-2015 1:02:39 2 -
CPC loop - 08-03-2015 2:06:46 6 10

Theo van Dis

 TijdPuntenBonus
Vopakloop Hellevoetsluis - 12-10-2014 51:32 17 10
3km Testloop - 04-11-2014 14:47 38 -
Bruggenloop - 07-12-2014 1:24:01 16 -
3km Testloop - 06-01-2015 15:30 20 -
3km Testloop - 03-02-2015 15:15 21 -

Thijs Walstra

 TijdPuntenBonus
Spijkenisse Baancircuit (baan) - 11-09-2014 21:00 7 10
Sommelsdijk VBC - 20-09-2014 46:03 10 10
Vopakloop Hellevoetsluis - 12-10-2014 44:09 31 10
Spijkenisse - 09-11-2014 1:14:32 7 -
3km Testloop - 06-01-2015 12:34 42 10

Thomas White

 TijdPuntenBonus
Vopakloop Hellevoetsluis - 12-10-2014 39:46 38 -

Tjerk Hazeveld

 TijdPuntenBonus
Dam tot Damloop - 21-09-2014 1:31:48 4 10
Zevenheuvelenloop - 16-11-2014 1:23:47 11 10
Halve van Westvoorne - 04-01-2015 2:09:11 4 -
3km Testloop - 06-01-2015 14:31 24 10
Halve van Maassluis - 18-01-2015 1:58:54 1 10
3km Testloop - 03-02-2015 14:37 22 10
3km Testloop - 03-03-2015 18:53 17 -
Halve van Oostvoorne - 14-03-2015 1:55:54 2 10

Ton Roelofs

 TijdPuntenBonus
Zevenheuvelenloop - 16-11-2014 1:48:01 1 -
Bruggenloop - 07-12-2014 1:44:33 2 -

Ton van Almen

 TijdPuntenBonus
3km Testloop - 04-11-2014 15:25 35 -
Halve van Westvoorne - 04-01-2015 55:02 3 -
3km Testloop - 06-01-2015 15:49 18 -
Halve van Maassluis - 18-01-2015 54:35 1 10
3km Testloop - 03-03-2015 15:50 24 -

Victor Phaff

 TijdPuntenBonus
Spijkenisse Baancircuit (baan) - 11-09-2014 16:43 23 10
Halve van Maassluis - 18-01-2015 1:15:06 18 10
Halve van Oostvoorne - 14-03-2015 1:18:43 32 10

Vincent Bloem

 TijdPuntenBonus
Spijkenisse - 09-11-2014 17:37 9 -
Kruininger Gorscross - 30-11-2014 17:20 5 -
SPARK Marathon - 14-12-2014 37:10 4 -
Halve van Maassluis - 18-01-2015 36:08 2 10
Brielle - 08-02-2015 17:26 4 10
CPC loop - 08-03-2015 36:44 2 -

Vivianne Kleijn

 TijdPuntenBonus
3km Testloop - 04-11-2014 19:34 10 -

Walter Lodder

 TijdPuntenBonus
Den Haag, Vredesloop - 20-09-2014 42:36 7 -
Halve van Westvoorne - 04-01-2015 1:36:49 28 -
3km Testloop - 06-01-2015 11:27 48 10
Halve van Oostvoorne - 14-03-2015 1:31:26 23 10

Wendy Maas

 TijdPuntenBonus
Bruggenloop - 07-12-2014 1:44:34 1 -

Wil Loopik

 TijdPuntenBonus
Vopakloop Hellevoetsluis - 12-10-2014 33:28 4 10
3km Testloop - 04-11-2014 20:53 7 -

Willeke Lageweg

 TijdPuntenBonus
3km Testloop - 03-02-2015 23:32 3 -
3km Testloop - 03-03-2015 23:23 1 -

Willem Spoorendonk

 TijdPuntenBonus
Vopakloop Hellevoetsluis - 12-10-2014 54:56 12 10
Spijkenisse - 09-11-2014 1:22:39 2 10
Bruggenloop - 07-12-2014 1:27:30 12 -
Halve van Westvoorne - 04-01-2015 2:08:12 5 -
CPC loop - 08-03-2015 1:59:49 12 10

Wim Padmos

 TijdPuntenBonus
Sommelsdijk VBC - 20-09-2014 37:16 22 -
Vopakloop Hellevoetsluis - 12-10-2014 35:46 54 10
Spijkenisse - 09-11-2014 1:08:28 11 -
Halve van Westvoorne - 04-01-2015 1:25:53 31 -
Halve van Maassluis - 18-01-2015 1:28:46 10 -
Kruininger Gorscross - 25-01-2015 52:20 4 -
Halve van Oostvoorne - 14-03-2015 1:18:27 33 10

Wobbe van der Linden

 TijdPuntenBonus
Zevenheuvelenloop - 16-11-2014 1:31:49 4 10
Bruggenloop - 07-12-2014 1:29:48 8 10

Yvonne Hartensveld

 TijdPuntenBonus
3km Testloop - 07-10-2014 22:57 2 10
3km Testloop - 04-11-2014 22:50 3 10
3km Testloop - 03-02-2015 23:05 4 10

Spelregels:

  • Het klassement begint op 1 september 2014 en gaat door tot de dag van de ledenvergadering, meestal zo rond half maart 2015. Want de winnaar van het klassement wordt gehuldigd tijdens de ledenvergadering.
  • Een wedstrijd telt mee voor het klassement als er uit tenminste 3 verschillende groepen een loper meedoet. Bijvoorbeeld iemand uit de A, iemand uit de B en iemand uit de C. Dit om te zorgen dat alleen wedstrijden meetellen waaraan een brede dwarsdoorsnede van Pallas lopers heeft meegedaan.
  • Als er bijv. 12 Pallaslopers meedoen aan een wedstrijd, dan krijgt de snelste loper 12 punten, de volgende 11 punten en zo aflopend. Als er verschillende afstanden gelopen worden, dan wordt voor elke afstand bepaald hoeveel Pallaslopers er mee hebben gedaan aan die afstand.
  • Om iedere loper van Pallas kansen te geven om winnaar te worden van het klassement is er voor iedere loper een richttijd opgesteld. Deze richttijd is met een formule berekent op basis van het gemiddelde van je looptijden sinds begin 2013 zoals ze bekend zijn op de Pallas site. Voor het berekenen van je richttijden moeten er tenminste 3 looptijden bekend zijn.
  • Als je in een wedstrijd een snellere tijd loopt dan je richttijd, dan krijg je 10 bonuspunten.
logo_body_and_soul.png
logo_dennis_postma.png
logo_martinic.png
logo_melinda.png
logo_paul_van_der_leij.png
logo_poldervaart.png
logo_steefit.png
logo_vanhaastert.png
logo_vtti.png
logo_wash_it_carwash.png
logo_wm.png
logo_zuiderwijk.png
Lopers_company-2.png
logo_kinderkoepel_bewerkt.png
logo_body_and_soul.png
logo_dennis_postma.png
logo_martinic.png
logo_melinda.png
logo_paul_van_der_leij.png
logo_poldervaart.png
logo_steefit.png
logo_vanhaastert.png
logo_vtti.png
logo_wash_it_carwash.png
logo_wm.png
logo_zuiderwijk.png
Lopers_company-2.png
logo_kinderkoepel_bewerkt.png